<?xml version='1.0' encoding='UTF-8'?><gpx version="1.1" creator="JPX - https://github.com/jenetics/jpx" xmlns="http://www.topografix.com/GPX/1/1"><trk><trkseg><trkpt lat="45.9553431" lon="8.7977458"><ele>533.0</ele><time>2026-05-03T09:24:54.853Z</time></trkpt><trkpt lat="45.9552783" lon="8.797784"><ele>533.0</ele><time>2026-05-03T09:24:57.897Z</time></trkpt><trkpt lat="45.955225" lon="8.7978325"><ele>533.0</ele><time>2026-05-03T09:25:06.835Z</time></trkpt><trkpt lat="45.955163" lon="8.7978816"><ele>533.0</ele><time>2026-05-03T09:26:07.835Z</time></trkpt><trkpt lat="45.95508" lon="8.797875"><ele>533.0</ele><time>2026-05-03T09:26:12.835Z</time></trkpt><trkpt lat="45.954975" lon="8.7978867"><ele>533.0</ele><time>2026-05-03T09:26:15.835Z</time></trkpt><trkpt lat="45.9548867" lon="8.797905"><ele>529.7142857142857</ele><time>2026-05-03T09:26:17.834Z</time></trkpt><trkpt lat="45.9548133" lon="8.79792"><ele>526.4285714285713</ele><time>2026-05-03T09:26:19.834Z</time></trkpt><trkpt lat="45.954745" lon="8.797945"><ele>523.1428571428571</ele><time>2026-05-03T09:26:21.835Z</time></trkpt><trkpt lat="45.9546833" lon="8.7979983"><ele>519.8571428571429</ele><time>2026-05-03T09:26:23.835Z</time></trkpt><trkpt lat="45.9546217" lon="8.7980667"><ele>516.5714285714287</ele><time>2026-05-03T09:26:25.835Z</time></trkpt><trkpt lat="45.954565" lon="8.7981283"><ele>513.2857142857143</ele><time>2026-05-03T09:26:27.835Z</time></trkpt><trkpt lat="45.9545067" lon="8.7982067"><ele>510.0</ele><time>2026-05-03T09:26:30.835Z</time></trkpt><trkpt lat="45.9545633" lon="8.7981417"><ele>510.0</ele><time>2026-05-03T09:26:36.835Z</time></trkpt><trkpt lat="45.9546333" lon="8.7980633"><ele>510.0</ele><time>2026-05-03T09:26:38.834Z</time></trkpt><trkpt lat="45.954685" lon="8.7979967"><ele>510.0</ele><time>2026-05-03T09:26:39.835Z</time></trkpt><trkpt lat="45.9547967" lon="8.7979183"><ele>510.0</ele><time>2026-05-03T09:26:41.835Z</time></trkpt><trkpt lat="45.954915" lon="8.797875"><ele>510.0</ele><time>2026-05-03T09:26:43.834Z</time></trkpt><trkpt lat="45.9550267" lon="8.7978433"><ele>512.3333333333334</ele><time>2026-05-03T09:26:45.835Z</time></trkpt><trkpt lat="45.9551083" lon="8.79786"><ele>514.6666666666666</ele><time>2026-05-03T09:26:47.834Z</time></trkpt><trkpt lat="45.9551767" lon="8.7979017"><ele>517.0</ele><time>2026-05-03T09:26:49.835Z</time></trkpt><trkpt lat="45.9552583" lon="8.79789"><ele>519.3333333333333</ele><time>2026-05-03T09:26:51.834Z</time></trkpt><trkpt lat="45.955305" lon="8.7978183"><ele>521.6666666666666</ele><time>2026-05-03T09:26:54.834Z</time></trkpt><trkpt lat="45.9553183" lon="8.7977133"><ele>524.0</ele><time>2026-05-03T09:27:00.835Z</time></trkpt><trkpt lat="45.9553617" lon="8.7976133"><ele>524.0</ele><time>2026-05-03T09:27:02.835Z</time></trkpt><trkpt lat="45.955435" lon="8.797545"><ele>524.0</ele><time>2026-05-03T09:27:04.834Z</time></trkpt><trkpt lat="45.9555067" lon="8.797445"><ele>524.0</ele><time>2026-05-03T09:27:06.835Z</time></trkpt><trkpt lat="45.955565" lon="8.7973183"><ele>524.0</ele><time>2026-05-03T09:27:08.835Z</time></trkpt><trkpt lat="45.9556083" lon="8.797185"><ele>524.0</ele><time>2026-05-03T09:27:10.835Z</time></trkpt><trkpt lat="45.955655" lon="8.79705"><ele>524.0</ele><time>2026-05-03T09:27:12.835Z</time></trkpt><trkpt lat="45.95571" lon="8.7969133"><ele>524.0</ele><time>2026-05-03T09:27:14.835Z</time></trkpt><trkpt lat="45.955755" lon="8.796795"><ele>524.0</ele><time>2026-05-03T09:27:16.834Z</time></trkpt><trkpt lat="45.9558067" lon="8.7967033"><ele>524.0</ele><time>2026-05-03T09:27:18.835Z</time></trkpt><trkpt lat="45.95583" lon="8.7965917"><ele>524.0</ele><time>2026-05-03T09:27:21.834Z</time></trkpt><trkpt lat="45.955835" lon="8.7964867"><ele>524.0</ele><time>2026-05-03T09:27:25.834Z</time></trkpt><trkpt lat="45.95582" lon="8.7963883"><ele>531.2</ele><time>2026-05-03T09:27:41.835Z</time></trkpt><trkpt lat="45.955885" lon="8.796325"><ele>538.4</ele><time>2026-05-03T09:27:44.835Z</time></trkpt><trkpt lat="45.9559533" lon="8.7962567"><ele>545.6</ele><time>2026-05-03T09:27:46.835Z</time></trkpt><trkpt lat="45.956025" lon="8.7961783"><ele>552.8</ele><time>2026-05-03T09:27:49.835Z</time></trkpt><trkpt lat="45.9561167" lon="8.7960983"><ele>560.0</ele><time>2026-05-03T09:27:52.834Z</time></trkpt><trkpt lat="45.956205" lon="8.79604"><ele>555.0</ele><time>2026-05-03T09:27:54.835Z</time></trkpt><trkpt lat="45.9562983" lon="8.795975"><ele>550.0</ele><time>2026-05-03T09:27:56.835Z</time></trkpt><trkpt lat="45.956395" lon="8.7958917"><ele>545.0</ele><time>2026-05-03T09:27:58.834Z</time></trkpt><trkpt lat="45.95649" lon="8.7958083"><ele>540.0</ele><time>2026-05-03T09:28:00.835Z</time></trkpt><trkpt lat="45.9565583" lon="8.7957867"><ele>535.0</ele><time>2026-05-03T09:28:02.835Z</time></trkpt><trkpt lat="45.9566417" lon="8.795775"><ele>539.3333333333334</ele><time>2026-05-03T09:28:04.835Z</time></trkpt><trkpt lat="45.9567433" lon="8.7957533"><ele>543.6666666666667</ele><time>2026-05-03T09:28:06.834Z</time></trkpt><trkpt lat="45.9568583" lon="8.7957067"><ele>548.0</ele><time>2026-05-03T09:28:08.834Z</time></trkpt><trkpt lat="45.956935" lon="8.7956783"><ele>552.3333333333334</ele><time>2026-05-03T09:28:10.834Z</time></trkpt><trkpt lat="45.957" lon="8.7956633"><ele>556.6666666666666</ele><time>2026-05-03T09:28:13.835Z</time></trkpt><trkpt lat="45.957045" lon="8.7955917"><ele>561.0</ele><time>2026-05-03T09:28:18.834Z</time></trkpt><trkpt lat="45.9571367" lon="8.7955517"><ele>561.0</ele><time>2026-05-03T09:28:22.835Z</time></trkpt><trkpt lat="45.9571967" lon="8.7955133"><ele>561.0</ele><time>2026-05-03T09:28:24.835Z</time></trkpt><trkpt lat="45.9572533" lon="8.7954617"><ele>561.0</ele><time>2026-05-03T09:28:26.834Z</time></trkpt><trkpt lat="45.9573417" lon="8.7953817"><ele>561.0</ele><time>2026-05-03T09:28:28.834Z</time></trkpt><trkpt lat="45.9574467" lon="8.7952867"><ele>561.0</ele><time>2026-05-03T09:28:30.835Z</time></trkpt><trkpt lat="45.957545" lon="8.7952"><ele>559.6</ele><time>2026-05-03T09:28:32.835Z</time></trkpt><trkpt lat="45.95763" lon="8.7950983"><ele>558.2</ele><time>2026-05-03T09:28:34.835Z</time></trkpt><trkpt lat="45.9577083" lon="8.79499"><ele>556.8</ele><time>2026-05-03T09:28:36.834Z</time></trkpt><trkpt lat="45.9577717" lon="8.7948767"><ele>555.4</ele><time>2026-05-03T09:28:38.834Z</time></trkpt><trkpt lat="45.95782" lon="8.7947617"><ele>554.0</ele><time>2026-05-03T09:28:41.835Z</time></trkpt><trkpt lat="45.9578633" lon="8.794665"><ele>554.0</ele><time>2026-05-03T09:28:44.835Z</time></trkpt><trkpt lat="45.9578983" lon="8.7945317"><ele>554.0</ele><time>2026-05-03T09:28:47.834Z</time></trkpt><trkpt lat="45.9579433" lon="8.7944333"><ele>554.0</ele><time>2026-05-03T09:28:49.834Z</time></trkpt><trkpt lat="45.9579867" lon="8.7943617"><ele>554.0</ele><time>2026-05-03T09:28:51.835Z</time></trkpt><trkpt lat="45.9580283" lon="8.7942667"><ele>554.0</ele><time>2026-05-03T09:28:53.835Z</time></trkpt><trkpt lat="45.958065" lon="8.7941867"><ele>554.0</ele><time>2026-05-03T09:28:55.834Z</time></trkpt><trkpt lat="45.9581233" lon="8.7941133"><ele>551.7142857142857</ele><time>2026-05-03T09:28:58.834Z</time></trkpt><trkpt lat="45.958195" lon="8.7940433"><ele>549.4285714285713</ele><time>2026-05-03T09:29:01.834Z</time></trkpt><trkpt lat="45.95827" lon="8.7940167"><ele>547.1428571428571</ele><time>2026-05-03T09:29:05.835Z</time></trkpt><trkpt lat="45.95833" lon="8.794075"><ele>544.8571428571429</ele><time>2026-05-03T09:29:08.835Z</time></trkpt><trkpt lat="45.9583667" lon="8.79415"><ele>542.5714285714287</ele><time>2026-05-03T09:29:10.835Z</time></trkpt><trkpt lat="45.9584133" lon="8.7942267"><ele>540.2857142857143</ele><time>2026-05-03T09:29:12.835Z</time></trkpt><trkpt lat="45.958455" lon="8.7943217"><ele>538.0</ele><time>2026-05-03T09:29:14.835Z</time></trkpt><trkpt lat="45.958505" lon="8.7944433"><ele>537.6</ele><time>2026-05-03T09:29:16.834Z</time></trkpt><trkpt lat="45.9585617" lon="8.7945917"><ele>537.1999999999999</ele><time>2026-05-03T09:29:18.835Z</time></trkpt><trkpt lat="45.9586033" lon="8.7946783"><ele>536.8</ele><time>2026-05-03T09:29:19.835Z</time></trkpt><trkpt lat="45.9586767" lon="8.79481"><ele>536.4</ele><time>2026-05-03T09:29:21.834Z</time></trkpt><trkpt lat="45.9587217" lon="8.79488"><ele>536.0</ele><time>2026-05-03T09:29:22.835Z</time></trkpt><trkpt lat="45.9587617" lon="8.7949917"><ele>536.0</ele><time>2026-05-03T09:29:24.835Z</time></trkpt><trkpt lat="45.9588017" lon="8.7950633"><ele>536.0</ele><time>2026-05-03T09:29:26.835Z</time></trkpt><trkpt lat="45.9588683" lon="8.79509"><ele>536.0</ele><time>2026-05-03T09:29:28.835Z</time></trkpt><trkpt lat="45.9589583" lon="8.7950367"><ele>536.0</ele><time>2026-05-03T09:29:30.834Z</time></trkpt><trkpt lat="45.9590367" lon="8.7949767"><ele>536.0</ele><time>2026-05-03T09:29:32.835Z</time></trkpt><trkpt lat="45.959095" lon="8.79492"><ele>536.0</ele><time>2026-05-03T09:29:34.835Z</time></trkpt><trkpt lat="45.9591633" lon="8.79488"><ele>535.4</ele><time>2026-05-03T09:29:37.835Z</time></trkpt><trkpt lat="45.9592517" lon="8.7948483"><ele>534.8</ele><time>2026-05-03T09:29:40.834Z</time></trkpt><trkpt lat="45.95933" lon="8.7948367"><ele>534.1999999999999</ele><time>2026-05-03T09:29:42.835Z</time></trkpt><trkpt lat="45.9594183" lon="8.79486"><ele>533.6</ele><time>2026-05-03T09:29:44.835Z</time></trkpt><trkpt lat="45.9595217" lon="8.7949167"><ele>533.0</ele><time>2026-05-03T09:29:46.835Z</time></trkpt><trkpt lat="45.9596517" lon="8.7950083"><ele>533.0</ele><time>2026-05-03T09:29:48.834Z</time></trkpt><trkpt lat="45.9597717" lon="8.7950583"><ele>533.0</ele><time>2026-05-03T09:29:50.835Z</time></trkpt><trkpt lat="45.95989" lon="8.7951183"><ele>533.0</ele><time>2026-05-03T09:29:52.834Z</time></trkpt><trkpt lat="45.95995" lon="8.79516"><ele>533.0</ele><time>2026-05-03T09:29:53.835Z</time></trkpt><trkpt lat="45.960005" lon="8.795225"><ele>533.0</ele><time>2026-05-03T09:29:54.835Z</time></trkpt><trkpt lat="45.9600933" lon="8.7953283"><ele>537.0</ele><time>2026-05-03T09:29:56.835Z</time></trkpt><trkpt lat="45.9601783" lon="8.795415"><ele>541.0</ele><time>2026-05-03T09:29:58.835Z</time></trkpt><trkpt lat="45.9602567" lon="8.795485"><ele>545.0</ele><time>2026-05-03T09:30:00.834Z</time></trkpt><trkpt lat="45.9602833" lon="8.7956383"><ele>549.0</ele><time>2026-05-03T09:30:02.834Z</time></trkpt><trkpt lat="45.9603283" lon="8.7957817"><ele>553.0</ele><time>2026-05-03T09:30:04.835Z</time></trkpt><trkpt lat="45.96035" lon="8.7959033"><ele>553.0</ele><time>2026-05-03T09:30:06.835Z</time></trkpt><trkpt lat="45.9604217" lon="8.7959617"><ele>553.0</ele><time>2026-05-03T09:30:08.835Z</time></trkpt><trkpt lat="45.9605067" lon="8.7959"><ele>553.0</ele><time>2026-05-03T09:30:11.835Z</time></trkpt><trkpt lat="45.96058" lon="8.7958033"><ele>553.0</ele><time>2026-05-03T09:30:13.835Z</time></trkpt><trkpt lat="45.96062" lon="8.7957283"><ele>553.0</ele><time>2026-05-03T09:30:14.835Z</time></trkpt><trkpt lat="45.96066" lon="8.795655"><ele>553.0</ele><time>2026-05-03T09:30:15.835Z</time></trkpt><trkpt lat="45.9607183" lon="8.7955383"><ele>553.0</ele><time>2026-05-03T09:30:17.835Z</time></trkpt><trkpt lat="45.9607567" lon="8.7954567"><ele>553.0</ele><time>2026-05-03T09:30:20.835Z</time></trkpt><trkpt lat="45.9607967" lon="8.795385"><ele>553.0</ele><time>2026-05-03T09:30:26.835Z</time></trkpt><trkpt lat="45.9607333" lon="8.7953367"><ele>553.0</ele><time>2026-05-03T09:30:32.835Z</time></trkpt><trkpt lat="45.9607183" lon="8.7952383"><ele>553.0</ele><time>2026-05-03T09:30:44.835Z</time></trkpt><trkpt lat="45.9606933" lon="8.7951483"><ele>553.0</ele><time>2026-05-03T09:30:54.834Z</time></trkpt><trkpt lat="45.9606883" lon="8.79505"><ele>553.0</ele><time>2026-05-03T09:31:14.835Z</time></trkpt><trkpt lat="45.9606767" lon="8.7949383"><ele>551.8333333333334</ele><time>2026-05-03T09:31:18.835Z</time></trkpt><trkpt lat="45.960665" lon="8.79481"><ele>550.6666666666667</ele><time>2026-05-03T09:31:21.835Z</time></trkpt><trkpt lat="45.9606167" lon="8.7947083"><ele>549.5</ele><time>2026-05-03T09:31:23.834Z</time></trkpt><trkpt lat="45.96057" lon="8.79464"><ele>548.3333333333334</ele><time>2026-05-03T09:31:25.835Z</time></trkpt><trkpt lat="45.9605167" lon="8.7945583"><ele>547.1666666666666</ele><time>2026-05-03T09:31:28.835Z</time></trkpt><trkpt lat="45.960525" lon="8.7944367"><ele>546.0</ele><time>2026-05-03T09:31:31.835Z</time></trkpt><trkpt lat="45.9605883" lon="8.7943367"><ele>544.8333333333334</ele><time>2026-05-03T09:31:34.835Z</time></trkpt><trkpt lat="45.96064" lon="8.7942833"><ele>543.6666666666666</ele><time>2026-05-03T09:31:38.835Z</time></trkpt><trkpt lat="45.9606533" lon="8.7941833"><ele>542.5</ele><time>2026-05-03T09:33:19.834Z</time></trkpt><trkpt lat="45.96077" lon="8.794165"><ele>541.3333333333333</ele><time>2026-05-03T09:34:46.834Z</time></trkpt><trkpt lat="45.9608433" lon="8.794125"><ele>540.1666666666666</ele><time>2026-05-03T09:34:49.834Z</time></trkpt><trkpt lat="45.9609067" lon="8.7940933"><ele>539.0</ele><time>2026-05-03T09:34:52.834Z</time></trkpt><trkpt lat="45.9609783" lon="8.794025"><ele>540.8333333333333</ele><time>2026-05-03T09:34:55.834Z</time></trkpt><trkpt lat="45.961005" lon="8.79394"><ele>542.6666666666666</ele><time>2026-05-03T09:35:04.834Z</time></trkpt><trkpt lat="45.9610233" lon="8.7938267"><ele>544.5</ele><time>2026-05-03T09:35:35.833Z</time></trkpt><trkpt lat="45.9610717" lon="8.79373"><ele>546.3333333333334</ele><time>2026-05-03T09:35:38.833Z</time></trkpt><trkpt lat="45.9611267" lon="8.7936467"><ele>548.1666666666667</ele><time>2026-05-03T09:35:40.834Z</time></trkpt><trkpt lat="45.9611783" lon="8.79353"><ele>550.0</ele><time>2026-05-03T09:35:43.834Z</time></trkpt><trkpt lat="45.961215" lon="8.7934533"><ele>550.0</ele><time>2026-05-03T09:35:45.834Z</time></trkpt><trkpt lat="45.9612517" lon="8.7933733"><ele>550.0</ele><time>2026-05-03T09:35:47.834Z</time></trkpt><trkpt lat="45.9613033" lon="8.7932983"><ele>550.0</ele><time>2026-05-03T09:35:49.833Z</time></trkpt><trkpt lat="45.9613733" lon="8.7932217"><ele>550.0</ele><time>2026-05-03T09:35:51.834Z</time></trkpt><trkpt lat="45.96144" lon="8.7931733"><ele>550.0</ele><time>2026-05-03T09:35:55.834Z</time></trkpt><trkpt lat="45.9614467" lon="8.7930817"><ele>550.0</ele><time>2026-05-03T09:36:05.834Z</time></trkpt><trkpt lat="45.9614183" lon="8.7931833"><ele>550.0</ele><time>2026-05-03T09:36:36.834Z</time></trkpt><trkpt lat="45.961375" lon="8.7933133"><ele>550.0</ele><time>2026-05-03T09:36:38.834Z</time></trkpt><trkpt lat="45.9613383" lon="8.7934633"><ele>550.0</ele><time>2026-05-03T09:36:40.834Z</time></trkpt><trkpt lat="45.961305" lon="8.793555"><ele>550.0</ele><time>2026-05-03T09:36:42.833Z</time></trkpt><trkpt lat="45.9613783" lon="8.793575"><ele>550.0</ele><time>2026-05-03T09:36:47.833Z</time></trkpt><trkpt lat="45.96143" lon="8.7935033"><ele>550.0</ele><time>2026-05-03T09:36:49.834Z</time></trkpt><trkpt lat="45.9615083" lon="8.793415"><ele>550.0</ele><time>2026-05-03T09:36:51.834Z</time></trkpt><trkpt lat="45.9615967" lon="8.7933483"><ele>550.0</ele><time>2026-05-03T09:36:53.834Z</time></trkpt><trkpt lat="45.9616833" lon="8.793335"><ele>550.0</ele><time>2026-05-03T09:36:55.833Z</time></trkpt><trkpt lat="45.961765" lon="8.793375"><ele>550.0</ele><time>2026-05-03T09:36:57.834Z</time></trkpt><trkpt lat="45.9618533" lon="8.7934383"><ele>550.0</ele><time>2026-05-03T09:36:59.833Z</time></trkpt><trkpt lat="45.9618633" lon="8.7935367"><ele>550.0</ele><time>2026-05-03T09:37:02.833Z</time></trkpt><trkpt lat="45.961785" lon="8.79355"><ele>550.0</ele><time>2026-05-03T09:37:04.834Z</time></trkpt><trkpt lat="45.9616867" lon="8.7934883"><ele>550.0</ele><time>2026-05-03T09:37:06.833Z</time></trkpt><trkpt lat="45.9616017" lon="8.7933983"><ele>550.0</ele><time>2026-05-03T09:37:08.834Z</time></trkpt><trkpt lat="45.961525" lon="8.7933383"><ele>550.0</ele><time>2026-05-03T09:37:10.834Z</time></trkpt><trkpt lat="45.9614367" lon="8.7933717"><ele>550.0</ele><time>2026-05-03T09:37:13.833Z</time></trkpt><trkpt lat="45.9613733" lon="8.79346"><ele>550.0</ele><time>2026-05-03T09:37:16.834Z</time></trkpt><trkpt lat="45.9613233" lon="8.79353"><ele>550.0</ele><time>2026-05-03T09:37:18.834Z</time></trkpt><trkpt lat="45.9613083" lon="8.7936283"><ele>550.0</ele><time>2026-05-03T09:37:23.834Z</time></trkpt><trkpt lat="45.9612917" lon="8.7935267"><ele>550.0</ele><time>2026-05-03T09:39:22.832Z</time></trkpt><trkpt lat="45.961335" lon="8.7934433"><ele>550.0</ele><time>2026-05-03T09:39:24.833Z</time></trkpt><trkpt lat="45.9613833" lon="8.7933317"><ele>550.0</ele><time>2026-05-03T09:39:26.833Z</time></trkpt><trkpt lat="45.9614533" lon="8.7931967"><ele>550.0</ele><time>2026-05-03T09:39:28.833Z</time></trkpt><trkpt lat="45.961515" lon="8.7931083"><ele>550.0</ele><time>2026-05-03T09:39:30.833Z</time></trkpt><trkpt lat="45.9615967" lon="8.7929733"><ele>550.0</ele><time>2026-05-03T09:39:32.832Z</time></trkpt><trkpt lat="45.9616917" lon="8.7928567"><ele>550.0</ele><time>2026-05-03T09:39:34.833Z</time></trkpt><trkpt lat="45.96178" lon="8.7927867"><ele>550.0</ele><time>2026-05-03T09:39:36.832Z</time></trkpt><trkpt lat="45.96185" lon="8.7927617"><ele>550.0</ele><time>2026-05-03T09:39:38.833Z</time></trkpt><trkpt lat="45.961925" lon="8.7927217"><ele>550.0</ele><time>2026-05-03T09:39:40.832Z</time></trkpt><trkpt lat="45.9619867" lon="8.7926467"><ele>549.6</ele><time>2026-05-03T09:39:42.833Z</time></trkpt><trkpt lat="45.9620317" lon="8.79254"><ele>549.2</ele><time>2026-05-03T09:39:44.832Z</time></trkpt><trkpt lat="45.962055" lon="8.7923933"><ele>548.8</ele><time>2026-05-03T09:39:46.833Z</time></trkpt><trkpt lat="45.96208" lon="8.79224"><ele>548.4</ele><time>2026-05-03T09:39:48.833Z</time></trkpt><trkpt lat="45.9620983" lon="8.7921483"><ele>548.0</ele><time>2026-05-03T09:39:49.833Z</time></trkpt><trkpt lat="45.9621533" lon="8.792005"><ele>548.0</ele><time>2026-05-03T09:39:51.832Z</time></trkpt><trkpt lat="45.9621917" lon="8.7919283"><ele>548.0</ele><time>2026-05-03T09:39:52.832Z</time></trkpt><trkpt lat="45.9622483" lon="8.7917783"><ele>548.0</ele><time>2026-05-03T09:39:54.833Z</time></trkpt><trkpt lat="45.9622733" lon="8.7916917"><ele>548.0</ele><time>2026-05-03T09:39:55.833Z</time></trkpt><trkpt lat="45.9623417" lon="8.79154"><ele>548.0</ele><time>2026-05-03T09:39:57.833Z</time></trkpt><trkpt lat="45.9623983" lon="8.7913733"><ele>546.3333333333333</ele><time>2026-05-03T09:39:59.833Z</time></trkpt><trkpt lat="45.9624167" lon="8.7912733"><ele>544.6666666666666</ele><time>2026-05-03T09:40:00.833Z</time></trkpt><trkpt lat="45.962425" lon="8.7911583"><ele>543.0</ele><time>2026-05-03T09:40:01.833Z</time></trkpt><trkpt lat="45.9624267" lon="8.79104"><ele>541.3333333333334</ele><time>2026-05-03T09:40:02.833Z</time></trkpt><trkpt lat="45.9624367" lon="8.7909083"><ele>539.6666666666667</ele><time>2026-05-03T09:40:03.833Z</time></trkpt><trkpt lat="45.9624317" lon="8.7907867"><ele>538.0</ele><time>2026-05-03T09:40:04.833Z</time></trkpt><trkpt lat="45.9624233" lon="8.79067"><ele>536.0</ele><time>2026-05-03T09:40:05.833Z</time></trkpt><trkpt lat="45.9624183" lon="8.790555"><ele>534.0</ele><time>2026-05-03T09:40:06.832Z</time></trkpt><trkpt lat="45.9624133" lon="8.7904417"><ele>532.0</ele><time>2026-05-03T09:40:07.833Z</time></trkpt><trkpt lat="45.962405" lon="8.7903267"><ele>530.0</ele><time>2026-05-03T09:40:08.833Z</time></trkpt><trkpt lat="45.9624167" lon="8.79021"><ele>528.0</ele><time>2026-05-03T09:40:09.833Z</time></trkpt><trkpt lat="45.9624167" lon="8.7901083"><ele>526.0</ele><time>2026-05-03T09:40:10.833Z</time></trkpt><trkpt lat="45.9624183" lon="8.7900067"><ele>524.6666666666667</ele><time>2026-05-03T09:40:11.832Z</time></trkpt><trkpt lat="45.96241" lon="8.7898983"><ele>523.3333333333334</ele><time>2026-05-03T09:40:12.833Z</time></trkpt><trkpt lat="45.9623867" lon="8.7897767"><ele>522.0</ele><time>2026-05-03T09:40:13.832Z</time></trkpt><trkpt lat="45.9623633" lon="8.7896533"><ele>520.6666666666666</ele><time>2026-05-03T09:40:14.833Z</time></trkpt><trkpt lat="45.96234" lon="8.7895367"><ele>519.3333333333333</ele><time>2026-05-03T09:40:15.833Z</time></trkpt><trkpt lat="45.9623333" lon="8.789425"><ele>518.0</ele><time>2026-05-03T09:40:16.832Z</time></trkpt><trkpt lat="45.9623183" lon="8.7893333"><ele>516.75</ele><time>2026-05-03T09:40:17.833Z</time></trkpt><trkpt lat="45.9622967" lon="8.789165"><ele>515.5</ele><time>2026-05-03T09:40:19.833Z</time></trkpt><trkpt lat="45.9623517" lon="8.789025"><ele>514.25</ele><time>2026-05-03T09:40:21.833Z</time></trkpt><trkpt lat="45.962435" lon="8.7889267"><ele>513.0</ele><time>2026-05-03T09:40:23.833Z</time></trkpt><trkpt lat="45.9625283" lon="8.78884"><ele>517.8333333333334</ele><time>2026-05-03T09:40:25.832Z</time></trkpt><trkpt lat="45.9626067" lon="8.7886867"><ele>522.6666666666666</ele><time>2026-05-03T09:40:27.833Z</time></trkpt><trkpt lat="45.9626333" lon="8.7885817"><ele>527.5</ele><time>2026-05-03T09:40:28.833Z</time></trkpt><trkpt lat="45.962655" lon="8.7884767"><ele>532.3333333333333</ele><time>2026-05-03T09:40:29.833Z</time></trkpt><trkpt lat="45.9626933" lon="8.7883933"><ele>537.1666666666666</ele><time>2026-05-03T09:40:30.833Z</time></trkpt><trkpt lat="45.962735" lon="8.7883167"><ele>542.0</ele><time>2026-05-03T09:40:31.832Z</time></trkpt><trkpt lat="45.96283" lon="8.7882117"><ele>542.0</ele><time>2026-05-03T09:40:33.832Z</time></trkpt><trkpt lat="45.9628783" lon="8.788135"><ele>542.0</ele><time>2026-05-03T09:40:35.833Z</time></trkpt><trkpt lat="45.9627883" lon="8.78802"><ele>542.0</ele><time>2026-05-03T09:40:37.833Z</time></trkpt><trkpt lat="45.962715" lon="8.7879583"><ele>542.0</ele><time>2026-05-03T09:40:38.833Z</time></trkpt><trkpt lat="45.96262" lon="8.7879133"><ele>542.0</ele><time>2026-05-03T09:40:39.833Z</time></trkpt><trkpt lat="45.9625283" lon="8.7878567"><ele>536.8333333333333</ele><time>2026-05-03T09:40:40.833Z</time></trkpt><trkpt lat="45.9624567" lon="8.7878117"><ele>531.6666666666666</ele><time>2026-05-03T09:40:41.833Z</time></trkpt><trkpt lat="45.9623967" lon="8.7877383"><ele>526.5</ele><time>2026-05-03T09:40:42.833Z</time></trkpt><trkpt lat="45.9623467" lon="8.7876517"><ele>521.3333333333334</ele><time>2026-05-03T09:40:43.833Z</time></trkpt><trkpt lat="45.9623117" lon="8.7875517"><ele>516.1666666666667</ele><time>2026-05-03T09:40:44.833Z</time></trkpt><trkpt lat="45.9622833" lon="8.7874333"><ele>511.0</ele><time>2026-05-03T09:40:45.833Z</time></trkpt><trkpt lat="45.9622433" lon="8.7873167"><ele>511.1666666666667</ele><time>2026-05-03T09:40:46.832Z</time></trkpt><trkpt lat="45.962205" lon="8.78719"><ele>511.33333333333337</ele><time>2026-05-03T09:40:47.833Z</time></trkpt><trkpt lat="45.9621667" lon="8.7870733"><ele>511.5</ele><time>2026-05-03T09:40:48.833Z</time></trkpt><trkpt lat="45.9621267" lon="8.786955"><ele>511.66666666666663</ele><time>2026-05-03T09:40:49.833Z</time></trkpt><trkpt lat="45.9620883" lon="8.7868533"><ele>511.8333333333333</ele><time>2026-05-03T09:40:50.833Z</time></trkpt><trkpt lat="45.9620467" lon="8.7867617"><ele>512.0</ele><time>2026-05-03T09:40:51.833Z</time></trkpt><trkpt lat="45.962005" lon="8.7865717"><ele>512.0</ele><time>2026-05-03T09:40:53.833Z</time></trkpt><trkpt lat="45.9620217" lon="8.7864767"><ele>511.99999999999994</ele><time>2026-05-03T09:40:54.832Z</time></trkpt><trkpt lat="45.962025" lon="8.786375"><ele>512.0</ele><time>2026-05-03T09:40:55.833Z</time></trkpt><trkpt lat="45.962025" lon="8.7862633"><ele>512.0</ele><time>2026-05-03T09:40:56.833Z</time></trkpt><trkpt lat="45.9620267" lon="8.78616"><ele>511.99999999999994</ele><time>2026-05-03T09:40:57.833Z</time></trkpt><trkpt lat="45.96202" lon="8.7860483"><ele>512.0</ele><time>2026-05-03T09:40:58.833Z</time></trkpt><trkpt lat="45.9620133" lon="8.785945"><ele>512.0</ele><time>2026-05-03T09:40:59.833Z</time></trkpt><trkpt lat="45.96201" lon="8.785845"><ele>513.0</ele><time>2026-05-03T09:41:00.833Z</time></trkpt><trkpt lat="45.962015" lon="8.7857433"><ele>514.0</ele><time>2026-05-03T09:41:01.833Z</time></trkpt><trkpt lat="45.9619983" lon="8.785635"><ele>515.0</ele><time>2026-05-03T09:41:02.833Z</time></trkpt><trkpt lat="45.9619867" lon="8.7855167"><ele>516.0</ele><time>2026-05-03T09:41:03.833Z</time></trkpt><trkpt lat="45.9619583" lon="8.785385"><ele>517.0</ele><time>2026-05-03T09:41:04.833Z</time></trkpt><trkpt lat="45.9619283" lon="8.7852583"><ele>518.0</ele><time>2026-05-03T09:41:05.833Z</time></trkpt><trkpt lat="45.9618983" lon="8.7851417"><ele>519.5</ele><time>2026-05-03T09:41:06.832Z</time></trkpt><trkpt lat="45.9618617" lon="8.78504"><ele>521.0</ele><time>2026-05-03T09:41:07.833Z</time></trkpt><trkpt lat="45.9618283" lon="8.78495"><ele>522.5</ele><time>2026-05-03T09:41:08.833Z</time></trkpt><trkpt lat="45.9618033" lon="8.784865"><ele>524.0</ele><time>2026-05-03T09:41:09.833Z</time></trkpt><trkpt lat="45.961785" lon="8.784775"><ele>525.5</ele><time>2026-05-03T09:41:10.833Z</time></trkpt><trkpt lat="45.96178" lon="8.784615"><ele>527.0</ele><time>2026-05-03T09:41:12.833Z</time></trkpt><trkpt lat="45.961795" lon="8.78452"><ele>527.0</ele><time>2026-05-03T09:41:14.833Z</time></trkpt><trkpt lat="45.9617833" lon="8.7843933"><ele>527.0</ele><time>2026-05-03T09:41:43.833Z</time></trkpt><trkpt lat="45.96179" lon="8.7842183"><ele>527.0</ele><time>2026-05-03T09:41:45.833Z</time></trkpt><trkpt lat="45.961785" lon="8.7841183"><ele>527.0</ele><time>2026-05-03T09:41:46.832Z</time></trkpt><trkpt lat="45.9617833" lon="8.7840217"><ele>527.0</ele><time>2026-05-03T09:41:47.832Z</time></trkpt><trkpt lat="45.96178" lon="8.7839217"><ele>527.0</ele><time>2026-05-03T09:41:48.833Z</time></trkpt><trkpt lat="45.9617667" lon="8.7838233"><ele>526.5</ele><time>2026-05-03T09:41:49.833Z</time></trkpt><trkpt lat="45.9617483" lon="8.783735"><ele>526.0</ele><time>2026-05-03T09:41:50.832Z</time></trkpt><trkpt lat="45.9617467" lon="8.78359"><ele>525.5</ele><time>2026-05-03T09:41:52.832Z</time></trkpt><trkpt lat="45.9618" lon="8.783535"><ele>525.0</ele><time>2026-05-03T09:41:54.833Z</time></trkpt><trkpt lat="45.9618433" lon="8.7836567"><ele>524.5</ele><time>2026-05-03T09:41:56.832Z</time></trkpt><trkpt lat="45.9618517" lon="8.7837567"><ele>524.0</ele><time>2026-05-03T09:41:57.833Z</time></trkpt><trkpt lat="45.9618633" lon="8.783885"><ele>524.0</ele><time>2026-05-03T09:41:58.833Z</time></trkpt><trkpt lat="45.961875" lon="8.7840333"><ele>524.0</ele><time>2026-05-03T09:41:59.833Z</time></trkpt><trkpt lat="45.9618917" lon="8.7841933"><ele>524.0</ele><time>2026-05-03T09:42:00.832Z</time></trkpt><trkpt lat="45.96191" lon="8.7843317"><ele>524.0</ele><time>2026-05-03T09:42:01.832Z</time></trkpt><trkpt lat="45.9619133" lon="8.7844617"><ele>524.0</ele><time>2026-05-03T09:42:02.833Z</time></trkpt><trkpt lat="45.9619167" lon="8.7845867"><ele>524.5</ele><time>2026-05-03T09:42:03.833Z</time></trkpt><trkpt lat="45.9619133" lon="8.78471"><ele>525.0</ele><time>2026-05-03T09:42:04.833Z</time></trkpt><trkpt lat="45.9619283" lon="8.7848283"><ele>525.5</ele><time>2026-05-03T09:42:05.833Z</time></trkpt><trkpt lat="45.96195" lon="8.7849467"><ele>526.0</ele><time>2026-05-03T09:42:06.833Z</time></trkpt><trkpt lat="45.9619783" lon="8.7850667"><ele>526.5</ele><time>2026-05-03T09:42:07.833Z</time></trkpt><trkpt lat="45.962025" lon="8.7851917"><ele>527.0</ele><time>2026-05-03T09:42:08.832Z</time></trkpt><trkpt lat="45.962065" lon="8.785315"><ele>525.5</ele><time>2026-05-03T09:42:09.833Z</time></trkpt><trkpt lat="45.9621017" lon="8.7854317"><ele>524.0</ele><time>2026-05-03T09:42:10.833Z</time></trkpt><trkpt lat="45.96214" lon="8.7855483"><ele>522.5</ele><time>2026-05-03T09:42:11.833Z</time></trkpt><trkpt lat="45.9621633" lon="8.7856683"><ele>521.0</ele><time>2026-05-03T09:42:12.832Z</time></trkpt><trkpt lat="45.9621817" lon="8.7857883"><ele>519.5</ele><time>2026-05-03T09:42:13.833Z</time></trkpt><trkpt lat="45.9622083" lon="8.7858983"><ele>518.0</ele><time>2026-05-03T09:42:14.833Z</time></trkpt><trkpt lat="45.962245" lon="8.7860083"><ele>517.1428571428571</ele><time>2026-05-03T09:42:15.833Z</time></trkpt><trkpt lat="45.9622867" lon="8.7861033"><ele>516.2857142857142</ele><time>2026-05-03T09:42:16.833Z</time></trkpt><trkpt lat="45.9623267" lon="8.7861917"><ele>515.4285714285714</ele><time>2026-05-03T09:42:17.833Z</time></trkpt><trkpt lat="45.962355" lon="8.7862817"><ele>514.5714285714286</ele><time>2026-05-03T09:42:18.832Z</time></trkpt><trkpt lat="45.9623783" lon="8.786375"><ele>513.7142857142857</ele><time>2026-05-03T09:42:19.833Z</time></trkpt><trkpt lat="45.9623983" lon="8.78648"><ele>512.8571428571429</ele><time>2026-05-03T09:42:20.833Z</time></trkpt><trkpt lat="45.9623933" lon="8.7865983"><ele>512.0</ele><time>2026-05-03T09:42:21.833Z</time></trkpt><trkpt lat="45.9623867" lon="8.78672"><ele>511.99999999999994</ele><time>2026-05-03T09:42:22.832Z</time></trkpt><trkpt lat="45.9623883" lon="8.7868233"><ele>512.0</ele><time>2026-05-03T09:42:23.833Z</time></trkpt><trkpt lat="45.9624217" lon="8.78692"><ele>512.0</ele><time>2026-05-03T09:42:25.832Z</time></trkpt><trkpt lat="45.9624867" lon="8.7868167"><ele>512.0</ele><time>2026-05-03T09:42:28.833Z</time></trkpt><trkpt lat="45.9625" lon="8.7867233"><ele>511.99999999999994</ele><time>2026-05-03T09:42:29.833Z</time></trkpt><trkpt lat="45.9625283" lon="8.7866117"><ele>512.0</ele><time>2026-05-03T09:42:30.833Z</time></trkpt><trkpt lat="45.96255" lon="8.7865017"><ele>513.0</ele><time>2026-05-03T09:42:31.832Z</time></trkpt><trkpt lat="45.962575" lon="8.7864083"><ele>514.0</ele><time>2026-05-03T09:42:32.832Z</time></trkpt><trkpt lat="45.96259" lon="8.78632"><ele>515.0</ele><time>2026-05-03T09:42:33.833Z</time></trkpt><trkpt lat="45.9625733" lon="8.7861333"><ele>516.0</ele><time>2026-05-03T09:42:35.833Z</time></trkpt><trkpt lat="45.96255" lon="8.7860417"><ele>517.0</ele><time>2026-05-03T09:42:36.833Z</time></trkpt><trkpt lat="45.9625217" lon="8.7859233"><ele>518.0</ele><time>2026-05-03T09:42:37.832Z</time></trkpt><trkpt lat="45.962495" lon="8.7858083"><ele>518.0</ele><time>2026-05-03T09:42:38.833Z</time></trkpt><trkpt lat="45.9624733" lon="8.7856833"><ele>518.0</ele><time>2026-05-03T09:42:39.833Z</time></trkpt><trkpt lat="45.9624583" lon="8.785555"><ele>518.0</ele><time>2026-05-03T09:42:40.833Z</time></trkpt><trkpt lat="45.962445" lon="8.7854333"><ele>518.0</ele><time>2026-05-03T09:42:41.833Z</time></trkpt><trkpt lat="45.96245" lon="8.7853133"><ele>518.0</ele><time>2026-05-03T09:42:42.832Z</time></trkpt><trkpt lat="45.9624417" lon="8.7851967"><ele>518.0</ele><time>2026-05-03T09:42:43.833Z</time></trkpt><trkpt lat="45.9624233" lon="8.7850817"><ele>519.5</ele><time>2026-05-03T09:42:44.833Z</time></trkpt><trkpt lat="45.9624267" lon="8.78498"><ele>521.0</ele><time>2026-05-03T09:42:45.832Z</time></trkpt><trkpt lat="45.9624133" lon="8.7848667"><ele>522.5</ele><time>2026-05-03T09:42:46.832Z</time></trkpt><trkpt lat="45.9624417" lon="8.7847617"><ele>524.0</ele><time>2026-05-03T09:42:47.832Z</time></trkpt><trkpt lat="45.96246" lon="8.78465"><ele>525.5</ele><time>2026-05-03T09:42:48.833Z</time></trkpt><trkpt lat="45.9624933" lon="8.78454"><ele>527.0</ele><time>2026-05-03T09:42:49.833Z</time></trkpt><trkpt lat="45.96255" lon="8.7844383"><ele>535.4</ele><time>2026-05-03T09:42:50.832Z</time></trkpt><trkpt lat="45.962615" lon="8.7843383"><ele>543.8000000000001</ele><time>2026-05-03T09:42:51.832Z</time></trkpt><trkpt lat="45.9626733" lon="8.784245"><ele>552.2</ele><time>2026-05-03T09:42:52.833Z</time></trkpt><trkpt lat="45.96275" lon="8.7841617"><ele>560.6</ele><time>2026-05-03T09:42:53.833Z</time></trkpt><trkpt lat="45.96281" lon="8.7840633"><ele>569.0</ele><time>2026-05-03T09:42:54.832Z</time></trkpt><trkpt lat="45.962865" lon="8.783945"><ele>569.0</ele><time>2026-05-03T09:42:55.833Z</time></trkpt><trkpt lat="45.96291" lon="8.78381"><ele>569.0</ele><time>2026-05-03T09:42:56.833Z</time></trkpt><trkpt lat="45.96298" lon="8.78368"><ele>569.0</ele><time>2026-05-03T09:42:57.833Z</time></trkpt><trkpt lat="45.963045" lon="8.7835167"><ele>569.0</ele><time>2026-05-03T09:42:58.833Z</time></trkpt><trkpt lat="45.9631167" lon="8.7833567"><ele>568.75</ele><time>2026-05-03T09:42:59.833Z</time></trkpt><trkpt lat="45.9631783" lon="8.7832033"><ele>568.5</ele><time>2026-05-03T09:43:00.832Z</time></trkpt><trkpt lat="45.96322" lon="8.7830183"><ele>568.25</ele><time>2026-05-03T09:43:01.833Z</time></trkpt><trkpt lat="45.9632717" lon="8.78286"><ele>568.0</ele><time>2026-05-03T09:43:02.833Z</time></trkpt><trkpt lat="45.9633217" lon="8.7826917"><ele>565.4</ele><time>2026-05-03T09:43:03.832Z</time></trkpt><trkpt lat="45.96336" lon="8.782545"><ele>562.8</ele><time>2026-05-03T09:43:04.832Z</time></trkpt><trkpt lat="45.9634033" lon="8.7824017"><ele>560.2</ele><time>2026-05-03T09:43:05.832Z</time></trkpt><trkpt lat="45.9634533" lon="8.782275"><ele>557.6</ele><time>2026-05-03T09:43:06.833Z</time></trkpt><trkpt lat="45.9635067" lon="8.7821583"><ele>555.0</ele><time>2026-05-03T09:43:07.833Z</time></trkpt><trkpt lat="45.9635367" lon="8.7820433"><ele>559.1666666666666</ele><time>2026-05-03T09:43:08.833Z</time></trkpt><trkpt lat="45.96359" lon="8.7819667"><ele>563.3333333333334</ele><time>2026-05-03T09:43:09.833Z</time></trkpt><trkpt lat="45.9635983" lon="8.7818683"><ele>567.5</ele><time>2026-05-03T09:43:10.833Z</time></trkpt><trkpt lat="45.963585" lon="8.781705"><ele>571.6666666666667</ele><time>2026-05-03T09:43:12.833Z</time></trkpt><trkpt lat="45.9635517" lon="8.7818367"><ele>575.8333333333334</ele><time>2026-05-03T09:43:17.833Z</time></trkpt><trkpt lat="45.963535" lon="8.7819383"><ele>580.0</ele><time>2026-05-03T09:43:18.832Z</time></trkpt><trkpt lat="45.9635117" lon="8.7820367"><ele>577.0</ele><time>2026-05-03T09:43:19.833Z</time></trkpt><trkpt lat="45.9634533" lon="8.7821817"><ele>574.0</ele><time>2026-05-03T09:43:21.833Z</time></trkpt><trkpt lat="45.9633917" lon="8.78234"><ele>571.0</ele><time>2026-05-03T09:43:23.833Z</time></trkpt><trkpt lat="45.96333" lon="8.78252"><ele>568.0</ele><time>2026-05-03T09:43:24.832Z</time></trkpt><trkpt lat="45.96329" lon="8.782725"><ele>568.0</ele><time>2026-05-03T09:43:25.833Z</time></trkpt><trkpt lat="45.963225" lon="8.7829233"><ele>568.0</ele><time>2026-05-03T09:43:26.833Z</time></trkpt><trkpt lat="45.9631667" lon="8.7831283"><ele>568.0</ele><time>2026-05-03T09:43:27.832Z</time></trkpt><trkpt lat="45.9631167" lon="8.7833233"><ele>568.3333333333334</ele><time>2026-05-03T09:43:28.833Z</time></trkpt><trkpt lat="45.9631017" lon="8.7835467"><ele>568.6666666666666</ele><time>2026-05-03T09:43:29.832Z</time></trkpt><trkpt lat="45.9630933" lon="8.7837683"><ele>569.0</ele><time>2026-05-03T09:43:30.833Z</time></trkpt><trkpt lat="45.963085" lon="8.7839933"><ele>569.0</ele><time>2026-05-03T09:43:31.832Z</time></trkpt><trkpt lat="45.9630767" lon="8.7841933"><ele>569.0</ele><time>2026-05-03T09:43:32.833Z</time></trkpt><trkpt lat="45.9630667" lon="8.784375"><ele>569.0</ele><time>2026-05-03T09:43:33.833Z</time></trkpt><trkpt lat="45.9630883" lon="8.78453"><ele>569.0</ele><time>2026-05-03T09:43:34.833Z</time></trkpt><trkpt lat="45.9631083" lon="8.7846567"><ele>568.0</ele><time>2026-05-03T09:43:35.833Z</time></trkpt><trkpt lat="45.963135" lon="8.7847583"><ele>567.0</ele><time>2026-05-03T09:43:36.832Z</time></trkpt><trkpt lat="45.96322" lon="8.7848517"><ele>566.0</ele><time>2026-05-03T09:43:37.833Z</time></trkpt><trkpt lat="45.9633017" lon="8.7849417"><ele>565.0</ele><time>2026-05-03T09:43:38.833Z</time></trkpt><trkpt lat="45.9633833" lon="8.7850283"><ele>564.0</ele><time>2026-05-03T09:43:39.832Z</time></trkpt><trkpt lat="45.9634483" lon="8.7850933"><ele>569.8</ele><time>2026-05-03T09:43:40.833Z</time></trkpt><trkpt lat="45.9635017" lon="8.78518"><ele>575.5999999999999</ele><time>2026-05-03T09:43:41.833Z</time></trkpt><trkpt lat="45.96355" lon="8.7852733"><ele>581.4</ele><time>2026-05-03T09:43:42.833Z</time></trkpt><trkpt lat="45.9635883" lon="8.7853917"><ele>587.1999999999999</ele><time>2026-05-03T09:43:43.833Z</time></trkpt><trkpt lat="45.963645" lon="8.785535"><ele>593.0</ele><time>2026-05-03T09:43:44.833Z</time></trkpt><trkpt lat="45.96368" lon="8.7857083"><ele>593.0</ele><time>2026-05-03T09:43:45.833Z</time></trkpt><trkpt lat="45.9637233" lon="8.7859033"><ele>593.0</ele><time>2026-05-03T09:43:46.833Z</time></trkpt><trkpt lat="45.963765" lon="8.78608"><ele>593.0</ele><time>2026-05-03T09:43:47.833Z</time></trkpt><trkpt lat="45.9637867" lon="8.786255"><ele>593.0</ele><time>2026-05-03T09:43:48.833Z</time></trkpt><trkpt lat="45.9638117" lon="8.7864283"><ele>591.8</ele><time>2026-05-03T09:43:49.833Z</time></trkpt><trkpt lat="45.96384" lon="8.7866017"><ele>590.5999999999999</ele><time>2026-05-03T09:43:50.832Z</time></trkpt><trkpt lat="45.9638617" lon="8.786755"><ele>589.4000000000001</ele><time>2026-05-03T09:43:51.833Z</time></trkpt><trkpt lat="45.9638717" lon="8.7868967"><ele>588.2</ele><time>2026-05-03T09:43:52.833Z</time></trkpt><trkpt lat="45.96389" lon="8.7870117"><ele>587.0</ele><time>2026-05-03T09:43:53.833Z</time></trkpt><trkpt lat="45.9639167" lon="8.7871083"><ele>587.0</ele><time>2026-05-03T09:43:54.833Z</time></trkpt><trkpt lat="45.9639833" lon="8.7871633"><ele>587.0</ele><time>2026-05-03T09:43:55.833Z</time></trkpt><trkpt lat="45.96406" lon="8.787205"><ele>587.0</ele><time>2026-05-03T09:43:57.833Z</time></trkpt><trkpt lat="45.964075" lon="8.7870367"><ele>587.0</ele><time>2026-05-03T09:43:59.832Z</time></trkpt><trkpt lat="45.9640817" lon="8.7869333"><ele>587.0</ele><time>2026-05-03T09:44:00.832Z</time></trkpt><trkpt lat="45.9640917" lon="8.7868217"><ele>587.0</ele><time>2026-05-03T09:44:01.832Z</time></trkpt><trkpt lat="45.9641017" lon="8.786715"><ele>587.0</ele><time>2026-05-03T09:44:02.833Z</time></trkpt><trkpt lat="45.9640917" lon="8.78661"><ele>587.0</ele><time>2026-05-03T09:44:03.833Z</time></trkpt><trkpt lat="45.9640817" lon="8.7865067"><ele>587.0</ele><time>2026-05-03T09:44:04.832Z</time></trkpt><trkpt lat="45.9640717" lon="8.7864033"><ele>587.0</ele><time>2026-05-03T09:44:05.833Z</time></trkpt><trkpt lat="45.96407" lon="8.7863067"><ele>587.0</ele><time>2026-05-03T09:44:06.832Z</time></trkpt><trkpt lat="45.9640783" lon="8.78621"><ele>587.0</ele><time>2026-05-03T09:44:07.833Z</time></trkpt><trkpt lat="45.9640783" lon="8.78602"><ele>588.0</ele><time>2026-05-03T09:44:09.833Z</time></trkpt><trkpt lat="45.9640683" lon="8.7859167"><ele>589.0</ele><time>2026-05-03T09:44:10.833Z</time></trkpt><trkpt lat="45.9640617" lon="8.7858083"><ele>590.0</ele><time>2026-05-03T09:44:11.833Z</time></trkpt><trkpt lat="45.9640633" lon="8.7856967"><ele>591.0</ele><time>2026-05-03T09:44:12.833Z</time></trkpt><trkpt lat="45.9640683" lon="8.785575"><ele>592.0</ele><time>2026-05-03T09:44:13.833Z</time></trkpt><trkpt lat="45.9640583" lon="8.78545"><ele>593.0</ele><time>2026-05-03T09:44:14.833Z</time></trkpt><trkpt lat="45.9640517" lon="8.7853283"><ele>593.0</ele><time>2026-05-03T09:44:15.833Z</time></trkpt><trkpt lat="45.9640433" lon="8.7852083"><ele>593.0</ele><time>2026-05-03T09:44:16.833Z</time></trkpt><trkpt lat="45.9640333" lon="8.7850883"><ele>593.0</ele><time>2026-05-03T09:44:17.833Z</time></trkpt><trkpt lat="45.9640183" lon="8.784975"><ele>593.0</ele><time>2026-05-03T09:44:18.832Z</time></trkpt><trkpt lat="45.9639983" lon="8.7848683"><ele>593.0</ele><time>2026-05-03T09:44:19.833Z</time></trkpt><trkpt lat="45.9639817" lon="8.7847517"><ele>593.0</ele><time>2026-05-03T09:44:20.833Z</time></trkpt><trkpt lat="45.9639717" lon="8.7846333"><ele>594.8333333333333</ele><time>2026-05-03T09:44:21.833Z</time></trkpt><trkpt lat="45.96396" lon="8.78451"><ele>596.6666666666666</ele><time>2026-05-03T09:44:22.833Z</time></trkpt><trkpt lat="45.9639467" lon="8.7843867"><ele>598.5</ele><time>2026-05-03T09:44:23.833Z</time></trkpt><trkpt lat="45.9639367" lon="8.7842717"><ele>600.3333333333334</ele><time>2026-05-03T09:44:24.832Z</time></trkpt><trkpt lat="45.96393" lon="8.78416"><ele>602.1666666666667</ele><time>2026-05-03T09:44:25.833Z</time></trkpt><trkpt lat="45.9639267" lon="8.7840533"><ele>604.0</ele><time>2026-05-03T09:44:26.832Z</time></trkpt><trkpt lat="45.9639267" lon="8.7839533"><ele>605.0</ele><time>2026-05-03T09:44:27.833Z</time></trkpt><trkpt lat="45.963925" lon="8.7838067"><ele>606.0</ele><time>2026-05-03T09:44:29.833Z</time></trkpt><trkpt lat="45.96392" lon="8.7836917"><ele>607.0</ele><time>2026-05-03T09:44:32.832Z</time></trkpt><trkpt lat="45.9639383" lon="8.78359"><ele>608.0</ele><time>2026-05-03T09:44:35.833Z</time></trkpt><trkpt lat="45.96398" lon="8.78349"><ele>609.0</ele><time>2026-05-03T09:44:38.833Z</time></trkpt><trkpt lat="45.9640233" lon="8.7833983"><ele>610.0</ele><time>2026-05-03T09:44:40.832Z</time></trkpt><trkpt lat="45.96406" lon="8.7833033"><ele>610.4</ele><time>2026-05-03T09:44:43.833Z</time></trkpt><trkpt lat="45.9640567" lon="8.7831633"><ele>610.8</ele><time>2026-05-03T09:44:54.833Z</time></trkpt><trkpt lat="45.9640767" lon="8.7830517"><ele>611.2</ele><time>2026-05-03T09:44:56.833Z</time></trkpt><trkpt lat="45.9641167" lon="8.7829533"><ele>611.6</ele><time>2026-05-03T09:44:58.833Z</time></trkpt><trkpt lat="45.964165" lon="8.7827833"><ele>612.0</ele><time>2026-05-03T09:45:06.833Z</time></trkpt><trkpt lat="45.9642333" lon="8.782665"><ele>617.4</ele><time>2026-05-03T09:45:08.833Z</time></trkpt><trkpt lat="45.9642783" lon="8.7825683"><ele>622.8000000000001</ele><time>2026-05-03T09:45:09.833Z</time></trkpt><trkpt lat="45.9643383" lon="8.7824583"><ele>628.2</ele><time>2026-05-03T09:45:10.832Z</time></trkpt><trkpt lat="45.9643933" lon="8.7823283"><ele>633.6</ele><time>2026-05-03T09:45:11.833Z</time></trkpt><trkpt lat="45.9644517" lon="8.7822167"><ele>639.0</ele><time>2026-05-03T09:45:12.833Z</time></trkpt><trkpt lat="45.964505" lon="8.7821083"><ele>639.0</ele><time>2026-05-03T09:45:13.832Z</time></trkpt><trkpt lat="45.9645633" lon="8.7820167"><ele>639.0</ele><time>2026-05-03T09:45:14.833Z</time></trkpt><trkpt lat="45.9646167" lon="8.781925"><ele>639.0</ele><time>2026-05-03T09:45:15.833Z</time></trkpt><trkpt lat="45.9646933" lon="8.7818083"><ele>639.0</ele><time>2026-05-03T09:45:17.833Z</time></trkpt><trkpt lat="45.9647633" lon="8.7818267"><ele>639.0</ele><time>2026-05-03T09:45:20.833Z</time></trkpt><trkpt lat="45.96473" lon="8.7819083"><ele>639.0</ele><time>2026-05-03T09:45:22.832Z</time></trkpt><trkpt lat="45.9646667" lon="8.7819733"><ele>639.0</ele><time>2026-05-03T09:45:23.832Z</time></trkpt><trkpt lat="45.9646083" lon="8.7820383"><ele>639.0</ele><time>2026-05-03T09:45:24.833Z</time></trkpt><trkpt lat="45.9645533" lon="8.782105"><ele>639.0</ele><time>2026-05-03T09:45:25.833Z</time></trkpt><trkpt lat="45.9645067" lon="8.78218"><ele>639.0</ele><time>2026-05-03T09:45:26.832Z</time></trkpt><trkpt lat="45.9644633" lon="8.782265"><ele>639.0</ele><time>2026-05-03T09:45:27.833Z</time></trkpt><trkpt lat="45.9644267" lon="8.782375"><ele>639.0</ele><time>2026-05-03T09:45:28.833Z</time></trkpt><trkpt lat="45.96439" lon="8.7824933"><ele>639.0</ele><time>2026-05-03T09:45:29.833Z</time></trkpt><trkpt lat="45.9643567" lon="8.7826233"><ele>639.0</ele><time>2026-05-03T09:45:30.833Z</time></trkpt><trkpt lat="45.9643333" lon="8.78277"><ele>639.0</ele><time>2026-05-03T09:45:31.832Z</time></trkpt><trkpt lat="45.9643183" lon="8.78293"><ele>639.0</ele><time>2026-05-03T09:45:32.833Z</time></trkpt><trkpt lat="45.9642933" lon="8.7830767"><ele>639.0</ele><time>2026-05-03T09:45:33.833Z</time></trkpt><trkpt lat="45.9642733" lon="8.7832133"><ele>641.3333333333334</ele><time>2026-05-03T09:45:34.833Z</time></trkpt><trkpt lat="45.9642583" lon="8.7833217"><ele>643.6666666666666</ele><time>2026-05-03T09:45:35.832Z</time></trkpt><trkpt lat="45.964255" lon="8.7834333"><ele>646.0</ele><time>2026-05-03T09:45:36.833Z</time></trkpt><trkpt lat="45.9642533" lon="8.7835367"><ele>648.3333333333333</ele><time>2026-05-03T09:45:37.832Z</time></trkpt><trkpt lat="45.9642467" lon="8.7836333"><ele>650.6666666666666</ele><time>2026-05-03T09:45:38.833Z</time></trkpt><trkpt lat="45.9642683" lon="8.7838"><ele>653.0</ele><time>2026-05-03T09:45:40.832Z</time></trkpt><trkpt lat="45.964315" lon="8.7839717"><ele>653.0</ele><time>2026-05-03T09:45:42.833Z</time></trkpt><trkpt lat="45.9643517" lon="8.784065"><ele>653.0</ele><time>2026-05-03T09:45:43.833Z</time></trkpt><trkpt lat="45.9643817" lon="8.78416"><ele>653.0</ele><time>2026-05-03T09:45:44.832Z</time></trkpt><trkpt lat="45.964425" lon="8.7842317"><ele>653.0</ele><time>2026-05-03T09:45:45.833Z</time></trkpt><trkpt lat="45.9644683" lon="8.7843233"><ele>653.0</ele><time>2026-05-03T09:45:46.833Z</time></trkpt><trkpt lat="45.9644967" lon="8.78444"><ele>653.0</ele><time>2026-05-03T09:45:47.833Z</time></trkpt><trkpt lat="45.9645267" lon="8.7845717"><ele>652.4</ele><time>2026-05-03T09:45:48.833Z</time></trkpt><trkpt lat="45.964545" lon="8.784705"><ele>651.8</ele><time>2026-05-03T09:45:49.833Z</time></trkpt><trkpt lat="45.9645483" lon="8.78485"><ele>651.2</ele><time>2026-05-03T09:45:50.833Z</time></trkpt><trkpt lat="45.96454" lon="8.785"><ele>650.6</ele><time>2026-05-03T09:45:51.832Z</time></trkpt><trkpt lat="45.96454" lon="8.7851233"><ele>650.0</ele><time>2026-05-03T09:45:52.832Z</time></trkpt><trkpt lat="45.9645417" lon="8.7852433"><ele>648.8333333333333</ele><time>2026-05-03T09:45:53.832Z</time></trkpt><trkpt lat="45.9645567" lon="8.7853583"><ele>647.6666666666666</ele><time>2026-05-03T09:45:54.833Z</time></trkpt><trkpt lat="45.9645983" lon="8.7854617"><ele>646.5</ele><time>2026-05-03T09:45:55.833Z</time></trkpt><trkpt lat="45.96462" lon="8.7855683"><ele>645.3333333333334</ele><time>2026-05-03T09:45:56.832Z</time></trkpt><trkpt lat="45.9646417" lon="8.7856933"><ele>644.1666666666667</ele><time>2026-05-03T09:45:57.832Z</time></trkpt><trkpt lat="45.9646767" lon="8.785825"><ele>643.0</ele><time>2026-05-03T09:45:58.832Z</time></trkpt><trkpt lat="45.96473" lon="8.7859783"><ele>641.5</ele><time>2026-05-03T09:45:59.831Z</time></trkpt><trkpt lat="45.96477" lon="8.7861483"><ele>640.0</ele><time>2026-05-03T09:46:00.831Z</time></trkpt><trkpt lat="45.964815" lon="8.7863067"><ele>638.5</ele><time>2026-05-03T09:46:01.832Z</time></trkpt><trkpt lat="45.96485" lon="8.7864567"><ele>637.0</ele><time>2026-05-03T09:46:02.831Z</time></trkpt><trkpt lat="45.96488" lon="8.7865967"><ele>637.0</ele><time>2026-05-03T09:46:03.832Z</time></trkpt><trkpt lat="45.9648983" lon="8.7867333"><ele>637.0</ele><time>2026-05-03T09:46:04.832Z</time></trkpt><trkpt lat="45.9649083" lon="8.7868533"><ele>637.0</ele><time>2026-05-03T09:46:05.832Z</time></trkpt><trkpt lat="45.96491" lon="8.786955"><ele>637.0</ele><time>2026-05-03T09:46:06.832Z</time></trkpt><trkpt lat="45.9648917" lon="8.787045"><ele>637.0</ele><time>2026-05-03T09:46:07.832Z</time></trkpt><trkpt lat="45.964965" lon="8.78704"><ele>637.0</ele><time>2026-05-03T09:46:10.832Z</time></trkpt><trkpt lat="45.9649967" lon="8.7869133"><ele>637.0</ele><time>2026-05-03T09:46:11.832Z</time></trkpt><trkpt lat="45.9650267" lon="8.7868"><ele>637.0</ele><time>2026-05-03T09:46:12.831Z</time></trkpt><trkpt lat="45.9650517" lon="8.7866883"><ele>637.0</ele><time>2026-05-03T09:46:13.832Z</time></trkpt><trkpt lat="45.9650617" lon="8.7865583"><ele>637.0</ele><time>2026-05-03T09:46:14.832Z</time></trkpt><trkpt lat="45.9650817" lon="8.78643"><ele>637.0</ele><time>2026-05-03T09:46:15.831Z</time></trkpt><trkpt lat="45.9650967" lon="8.7863017"><ele>637.0</ele><time>2026-05-03T09:46:16.832Z</time></trkpt><trkpt lat="45.9651183" lon="8.7861783"><ele>645.2</ele><time>2026-05-03T09:46:17.831Z</time></trkpt><trkpt lat="45.9651367" lon="8.7860533"><ele>653.4000000000001</ele><time>2026-05-03T09:46:18.831Z</time></trkpt><trkpt lat="45.9651533" lon="8.785915"><ele>661.5999999999999</ele><time>2026-05-03T09:46:19.832Z</time></trkpt><trkpt lat="45.9651533" lon="8.78577"><ele>669.8</ele><time>2026-05-03T09:46:20.832Z</time></trkpt><trkpt lat="45.96515" lon="8.78563"><ele>678.0</ele><time>2026-05-03T09:46:21.832Z</time></trkpt><trkpt lat="45.965135" lon="8.78549"><ele>678.8</ele><time>2026-05-03T09:46:22.832Z</time></trkpt><trkpt lat="45.9651067" lon="8.78536"><ele>679.5999999999999</ele><time>2026-05-03T09:46:23.831Z</time></trkpt><trkpt lat="45.9650717" lon="8.7852367"><ele>680.4000000000001</ele><time>2026-05-03T09:46:24.832Z</time></trkpt><trkpt lat="45.9650317" lon="8.785105"><ele>681.2</ele><time>2026-05-03T09:46:25.831Z</time></trkpt><trkpt lat="45.9649867" lon="8.7850033"><ele>682.0</ele><time>2026-05-03T09:46:26.831Z</time></trkpt><trkpt lat="45.9649567" lon="8.7848917"><ele>683.0</ele><time>2026-05-03T09:46:27.831Z</time></trkpt><trkpt lat="45.9649433" lon="8.7847833"><ele>684.0</ele><time>2026-05-03T09:46:28.831Z</time></trkpt><trkpt lat="45.9649367" lon="8.7846783"><ele>685.0</ele><time>2026-05-03T09:46:29.832Z</time></trkpt><trkpt lat="45.96496" lon="8.78457"><ele>686.0</ele><time>2026-05-03T09:46:30.832Z</time></trkpt><trkpt lat="45.964995" lon="8.784455"><ele>687.0</ele><time>2026-05-03T09:46:31.831Z</time></trkpt><trkpt lat="45.96504" lon="8.7843433"><ele>688.0</ele><time>2026-05-03T09:46:32.832Z</time></trkpt><trkpt lat="45.9650983" lon="8.7842483"><ele>688.0</ele><time>2026-05-03T09:46:33.832Z</time></trkpt><trkpt lat="45.9651467" lon="8.7841567"><ele>688.0</ele><time>2026-05-03T09:46:34.832Z</time></trkpt><trkpt lat="45.96517" lon="8.78407"><ele>688.0</ele><time>2026-05-03T09:46:35.832Z</time></trkpt><trkpt lat="45.965165" lon="8.7839067"><ele>688.0</ele><time>2026-05-03T09:46:37.832Z</time></trkpt><trkpt lat="45.9651217" lon="8.7838217"><ele>688.0</ele><time>2026-05-03T09:46:38.832Z</time></trkpt><trkpt lat="45.965085" lon="8.783735"><ele>688.0</ele><time>2026-05-03T09:46:39.832Z</time></trkpt><trkpt lat="45.9650683" lon="8.7836467"><ele>688.0</ele><time>2026-05-03T09:46:40.832Z</time></trkpt><trkpt lat="45.9650717" lon="8.7835533"><ele>688.0</ele><time>2026-05-03T09:46:41.831Z</time></trkpt><trkpt lat="45.96509" lon="8.783455"><ele>688.0</ele><time>2026-05-03T09:46:42.832Z</time></trkpt><trkpt lat="45.9651217" lon="8.7833617"><ele>688.0</ele><time>2026-05-03T09:46:43.831Z</time></trkpt><trkpt lat="45.965165" lon="8.7832683"><ele>688.0</ele><time>2026-05-03T09:46:44.832Z</time></trkpt><trkpt lat="45.96522" lon="8.7831783"><ele>688.0</ele><time>2026-05-03T09:46:45.831Z</time></trkpt><trkpt lat="45.9652683" lon="8.7830733"><ele>687.3333333333334</ele><time>2026-05-03T09:46:46.832Z</time></trkpt><trkpt lat="45.9653083" lon="8.7829767"><ele>686.6666666666667</ele><time>2026-05-03T09:46:47.832Z</time></trkpt><trkpt lat="45.9653533" lon="8.7828917"><ele>686.0</ele><time>2026-05-03T09:46:48.831Z</time></trkpt><trkpt lat="45.9654033" lon="8.78282"><ele>685.3333333333334</ele><time>2026-05-03T09:46:49.831Z</time></trkpt><trkpt lat="45.9654683" lon="8.78276"><ele>684.6666666666666</ele><time>2026-05-03T09:46:50.832Z</time></trkpt><trkpt lat="45.965545" lon="8.7826983"><ele>684.0</ele><time>2026-05-03T09:46:51.832Z</time></trkpt><trkpt lat="45.9656233" lon="8.7826467"><ele>684.3333333333334</ele><time>2026-05-03T09:46:52.832Z</time></trkpt><trkpt lat="45.9657" lon="8.782575"><ele>684.6666666666666</ele><time>2026-05-03T09:46:53.832Z</time></trkpt><trkpt lat="45.96577" lon="8.78249"><ele>685.0</ele><time>2026-05-03T09:46:54.832Z</time></trkpt><trkpt lat="45.9658317" lon="8.782375"><ele>685.3333333333333</ele><time>2026-05-03T09:46:55.831Z</time></trkpt><trkpt lat="45.9658867" lon="8.78228"><ele>685.6666666666666</ele><time>2026-05-03T09:46:56.832Z</time></trkpt><trkpt lat="45.9659233" lon="8.7821917"><ele>686.0</ele><time>2026-05-03T09:46:57.832Z</time></trkpt><trkpt lat="45.96598" lon="8.782065"><ele>686.0</ele><time>2026-05-03T09:46:59.832Z</time></trkpt><trkpt lat="45.9660483" lon="8.78209"><ele>686.0</ele><time>2026-05-03T09:48:02.832Z</time></trkpt><trkpt lat="45.966005" lon="8.7822117"><ele>686.0</ele><time>2026-05-03T09:48:04.831Z</time></trkpt><trkpt lat="45.96596" lon="8.7822983"><ele>686.0</ele><time>2026-05-03T09:48:05.832Z</time></trkpt><trkpt lat="45.9658867" lon="8.78242"><ele>686.0</ele><time>2026-05-03T09:48:06.832Z</time></trkpt><trkpt lat="45.965815" lon="8.782555"><ele>685.6666666666666</ele><time>2026-05-03T09:48:07.832Z</time></trkpt><trkpt lat="45.965745" lon="8.78268"><ele>685.3333333333333</ele><time>2026-05-03T09:48:08.832Z</time></trkpt><trkpt lat="45.96569" lon="8.7827817"><ele>685.0</ele><time>2026-05-03T09:48:09.831Z</time></trkpt><trkpt lat="45.9656533" lon="8.7828867"><ele>684.6666666666666</ele><time>2026-05-03T09:48:10.832Z</time></trkpt><trkpt lat="45.9656317" lon="8.782985"><ele>684.3333333333334</ele><time>2026-05-03T09:48:11.832Z</time></trkpt><trkpt lat="45.9656183" lon="8.7830933"><ele>684.0</ele><time>2026-05-03T09:48:12.832Z</time></trkpt><trkpt lat="45.965615" lon="8.7832017"><ele>683.9999999999999</ele><time>2026-05-03T09:48:13.832Z</time></trkpt><trkpt lat="45.9656183" lon="8.783315"><ele>684.0</ele><time>2026-05-03T09:48:14.832Z</time></trkpt><trkpt lat="45.965625" lon="8.7834317"><ele>684.0</ele><time>2026-05-03T09:48:15.832Z</time></trkpt><trkpt lat="45.9656333" lon="8.7835433"><ele>684.0</ele><time>2026-05-03T09:48:16.832Z</time></trkpt><trkpt lat="45.96564" lon="8.7836483"><ele>684.0</ele><time>2026-05-03T09:48:17.832Z</time></trkpt><trkpt lat="45.9656483" lon="8.7837517"><ele>683.9999999999999</ele><time>2026-05-03T09:48:18.832Z</time></trkpt><trkpt lat="45.9656633" lon="8.7838433"><ele>684.0</ele><time>2026-05-03T09:48:19.831Z</time></trkpt><trkpt lat="45.9657117" lon="8.7839967"><ele>684.6666666666666</ele><time>2026-05-03T09:48:21.832Z</time></trkpt><trkpt lat="45.9657167" lon="8.7841317"><ele>685.3333333333334</ele><time>2026-05-03T09:48:23.832Z</time></trkpt><trkpt lat="45.9656717" lon="8.7843083"><ele>686.0</ele><time>2026-05-03T09:48:25.831Z</time></trkpt><trkpt lat="45.9656517" lon="8.78441"><ele>686.6666666666667</ele><time>2026-05-03T09:48:26.832Z</time></trkpt><trkpt lat="45.9656583" lon="8.78451"><ele>687.3333333333334</ele><time>2026-05-03T09:48:27.832Z</time></trkpt><trkpt lat="45.9656867" lon="8.7846"><ele>688.0</ele><time>2026-05-03T09:48:28.831Z</time></trkpt><trkpt lat="45.9657233" lon="8.784695"><ele>688.1666666666667</ele><time>2026-05-03T09:48:29.832Z</time></trkpt><trkpt lat="45.965755" lon="8.7847883"><ele>688.3333333333334</ele><time>2026-05-03T09:48:30.832Z</time></trkpt><trkpt lat="45.96578" lon="8.7848783"><ele>688.5</ele><time>2026-05-03T09:48:31.832Z</time></trkpt><trkpt lat="45.9657933" lon="8.7849683"><ele>688.6666666666666</ele><time>2026-05-03T09:48:32.832Z</time></trkpt><trkpt lat="45.9657983" lon="8.78514"><ele>688.8333333333333</ele><time>2026-05-03T09:48:34.831Z</time></trkpt><trkpt lat="45.9658117" lon="8.785265"><ele>689.0</ele><time>2026-05-03T09:48:36.832Z</time></trkpt><trkpt lat="45.965875" lon="8.78522"><ele>693.1666666666666</ele><time>2026-05-03T09:48:39.832Z</time></trkpt><trkpt lat="45.9658983" lon="8.7850767"><ele>697.3333333333333</ele><time>2026-05-03T09:48:41.832Z</time></trkpt><trkpt lat="45.965905" lon="8.784975"><ele>701.5</ele><time>2026-05-03T09:48:42.832Z</time></trkpt><trkpt lat="45.9659367" lon="8.78486"><ele>705.6666666666666</ele><time>2026-05-03T09:48:43.832Z</time></trkpt><trkpt lat="45.9659733" lon="8.78475"><ele>709.8333333333334</ele><time>2026-05-03T09:48:44.832Z</time></trkpt><trkpt lat="45.966005" lon="8.7846483"><ele>714.0</ele><time>2026-05-03T09:48:45.832Z</time></trkpt><trkpt lat="45.966025" lon="8.784535"><ele>714.0</ele><time>2026-05-03T09:48:46.832Z</time></trkpt><trkpt lat="45.96604" lon="8.7844167"><ele>714.0</ele><time>2026-05-03T09:48:47.831Z</time></trkpt><trkpt lat="45.9660517" lon="8.78431"><ele>714.0</ele><time>2026-05-03T09:48:48.832Z</time></trkpt><trkpt lat="45.96608" lon="8.7842133"><ele>714.0</ele><time>2026-05-03T09:48:49.831Z</time></trkpt><trkpt lat="45.9661217" lon="8.7841333"><ele>714.0</ele><time>2026-05-03T09:48:50.831Z</time></trkpt><trkpt lat="45.9661717" lon="8.7840617"><ele>714.0</ele><time>2026-05-03T09:48:51.832Z</time></trkpt><trkpt lat="45.96623" lon="8.7839917"><ele>714.0</ele><time>2026-05-03T09:48:52.832Z</time></trkpt><trkpt lat="45.966305" lon="8.783905"><ele>713.2</ele><time>2026-05-03T09:48:53.832Z</time></trkpt><trkpt lat="45.9663867" lon="8.7838033"><ele>712.4000000000001</ele><time>2026-05-03T09:48:54.831Z</time></trkpt><trkpt lat="45.9664583" lon="8.7836933"><ele>711.6</ele><time>2026-05-03T09:48:55.832Z</time></trkpt><trkpt lat="45.966525" lon="8.7835883"><ele>710.8</ele><time>2026-05-03T09:48:56.832Z</time></trkpt><trkpt lat="45.96658" lon="8.7834967"><ele>710.0</ele><time>2026-05-03T09:48:57.832Z</time></trkpt><trkpt lat="45.9666167" lon="8.7833783"><ele>710.0</ele><time>2026-05-03T09:48:59.831Z</time></trkpt><trkpt lat="45.9666817" lon="8.78344"><ele>710.0</ele><time>2026-05-03T09:49:04.831Z</time></trkpt><trkpt lat="45.9666933" lon="8.7835567"><ele>710.0</ele><time>2026-05-03T09:49:07.832Z</time></trkpt><trkpt lat="45.966635" lon="8.7837383"><ele>710.0</ele><time>2026-05-03T09:49:09.832Z</time></trkpt><trkpt lat="45.966585" lon="8.7838667"><ele>710.0</ele><time>2026-05-03T09:49:10.831Z</time></trkpt><trkpt lat="45.9665417" lon="8.7839967"><ele>710.0</ele><time>2026-05-03T09:49:11.832Z</time></trkpt><trkpt lat="45.966515" lon="8.78412"><ele>710.0</ele><time>2026-05-03T09:49:12.832Z</time></trkpt><trkpt lat="45.9665033" lon="8.7842517"><ele>710.0</ele><time>2026-05-03T09:49:13.831Z</time></trkpt><trkpt lat="45.966505" lon="8.7843567"><ele>710.0</ele><time>2026-05-03T09:49:14.832Z</time></trkpt><trkpt lat="45.9666033" lon="8.7844433"><ele>710.0</ele><time>2026-05-03T09:49:16.832Z</time></trkpt><trkpt lat="45.96668" lon="8.78444"><ele>710.0</ele><time>2026-05-03T09:49:17.831Z</time></trkpt><trkpt lat="45.9667617" lon="8.7844217"><ele>713.2</ele><time>2026-05-03T09:49:18.832Z</time></trkpt><trkpt lat="45.9668417" lon="8.784385"><ele>716.4</ele><time>2026-05-03T09:49:19.832Z</time></trkpt><trkpt lat="45.9669233" lon="8.7843433"><ele>719.5999999999999</ele><time>2026-05-03T09:49:20.832Z</time></trkpt><trkpt lat="45.9670217" lon="8.78429"><ele>722.8</ele><time>2026-05-03T09:49:21.832Z</time></trkpt><trkpt lat="45.967115" lon="8.7842583"><ele>726.0</ele><time>2026-05-03T09:49:22.832Z</time></trkpt><trkpt lat="45.967195" lon="8.784225"><ele>726.0</ele><time>2026-05-03T09:49:23.832Z</time></trkpt><trkpt lat="45.9672733" lon="8.7842"><ele>726.0</ele><time>2026-05-03T09:49:24.831Z</time></trkpt><trkpt lat="45.9673767" lon="8.7842533"><ele>726.0</ele><time>2026-05-03T09:49:26.832Z</time></trkpt><trkpt lat="45.9673767" lon="8.7844183"><ele>726.0</ele><time>2026-05-03T09:49:28.832Z</time></trkpt><trkpt lat="45.9673483" lon="8.7845033"><ele>726.0</ele><time>2026-05-03T09:49:29.832Z</time></trkpt><trkpt lat="45.96732" lon="8.78459"><ele>726.0</ele><time>2026-05-03T09:49:30.832Z</time></trkpt><trkpt lat="45.9672617" lon="8.7846733"><ele>727.1999999999999</ele><time>2026-05-03T09:49:31.832Z</time></trkpt><trkpt lat="45.9672017" lon="8.7847483"><ele>728.4</ele><time>2026-05-03T09:49:32.831Z</time></trkpt><trkpt lat="45.9671533" lon="8.7848133"><ele>729.6</ele><time>2026-05-03T09:49:33.832Z</time></trkpt><trkpt lat="45.967115" lon="8.784955"><ele>730.8</ele><time>2026-05-03T09:49:35.832Z</time></trkpt><trkpt lat="45.967195" lon="8.7850333"><ele>732.0</ele><time>2026-05-03T09:49:37.832Z</time></trkpt><trkpt lat="45.9673283" lon="8.7850183"><ele>732.0</ele><time>2026-05-03T09:49:39.832Z</time></trkpt><trkpt lat="45.9674367" lon="8.78497"><ele>732.0</ele><time>2026-05-03T09:49:40.832Z</time></trkpt><trkpt lat="45.96754" lon="8.7849133"><ele>732.0</ele><time>2026-05-03T09:49:41.832Z</time></trkpt><trkpt lat="45.96764" lon="8.7848717"><ele>732.0</ele><time>2026-05-03T09:49:42.832Z</time></trkpt><trkpt lat="45.9677417" lon="8.78484"><ele>732.0</ele><time>2026-05-03T09:49:43.832Z</time></trkpt><trkpt lat="45.9678383" lon="8.7848417"><ele>735.4000000000001</ele><time>2026-05-03T09:49:44.831Z</time></trkpt><trkpt lat="45.9679133" lon="8.784865"><ele>738.8000000000001</ele><time>2026-05-03T09:49:45.832Z</time></trkpt><trkpt lat="45.9680233" lon="8.7849433"><ele>742.2</ele><time>2026-05-03T09:49:47.832Z</time></trkpt><trkpt lat="45.9680583" lon="8.7851133"><ele>745.6</ele><time>2026-05-03T09:49:49.831Z</time></trkpt><trkpt lat="45.9680567" lon="8.7852283"><ele>749.0</ele><time>2026-05-03T09:49:50.831Z</time></trkpt><trkpt lat="45.9680233" lon="8.7853717"><ele>749.2</ele><time>2026-05-03T09:49:51.832Z</time></trkpt><trkpt lat="45.9680033" lon="8.785505"><ele>749.4000000000001</ele><time>2026-05-03T09:49:52.832Z</time></trkpt><trkpt lat="45.9679667" lon="8.7856533"><ele>749.6</ele><time>2026-05-03T09:49:53.832Z</time></trkpt><trkpt lat="45.9679383" lon="8.785795"><ele>749.8</ele><time>2026-05-03T09:49:54.832Z</time></trkpt><trkpt lat="45.9679167" lon="8.7859183"><ele>750.0</ele><time>2026-05-03T09:49:55.832Z</time></trkpt><trkpt lat="45.9679" lon="8.78603"><ele>750.0</ele><time>2026-05-03T09:49:56.832Z</time></trkpt><trkpt lat="45.9679" lon="8.7861333"><ele>750.0</ele><time>2026-05-03T09:49:57.832Z</time></trkpt><trkpt lat="45.96795" lon="8.786255"><ele>750.0</ele><time>2026-05-03T09:49:59.832Z</time></trkpt><trkpt lat="45.9680467" lon="8.7863167"><ele>750.0</ele><time>2026-05-03T09:50:01.831Z</time></trkpt><trkpt lat="45.9681167" lon="8.7863483"><ele>750.0</ele><time>2026-05-03T09:50:02.832Z</time></trkpt><trkpt lat="45.96827" lon="8.7864317"><ele>752.6</ele><time>2026-05-03T09:50:04.831Z</time></trkpt><trkpt lat="45.9683617" lon="8.7864983"><ele>755.2</ele><time>2026-05-03T09:50:05.832Z</time></trkpt><trkpt lat="45.9684317" lon="8.7865567"><ele>757.8</ele><time>2026-05-03T09:50:06.831Z</time></trkpt><trkpt lat="45.9684867" lon="8.786625"><ele>760.4</ele><time>2026-05-03T09:50:07.832Z</time></trkpt><trkpt lat="45.968535" lon="8.7866967"><ele>763.0</ele><time>2026-05-03T09:50:08.832Z</time></trkpt><trkpt lat="45.9685333" lon="8.7868817"><ele>762.2</ele><time>2026-05-03T09:50:10.832Z</time></trkpt><trkpt lat="45.9685033" lon="8.786985"><ele>761.4</ele><time>2026-05-03T09:50:11.832Z</time></trkpt><trkpt lat="45.968455" lon="8.787095"><ele>760.6</ele><time>2026-05-03T09:50:12.832Z</time></trkpt><trkpt lat="45.968395" lon="8.7872117"><ele>759.8000000000001</ele><time>2026-05-03T09:50:13.832Z</time></trkpt><trkpt lat="45.9683183" lon="8.78735"><ele>759.0</ele><time>2026-05-03T09:50:14.831Z</time></trkpt><trkpt lat="45.9682467" lon="8.7874817"><ele>759.0</ele><time>2026-05-03T09:50:15.832Z</time></trkpt><trkpt lat="45.96818" lon="8.7876117"><ele>759.0</ele><time>2026-05-03T09:50:16.832Z</time></trkpt><trkpt lat="45.9681217" lon="8.787745"><ele>759.0</ele><time>2026-05-03T09:50:17.832Z</time></trkpt><trkpt lat="45.9680733" lon="8.7878833"><ele>759.0</ele><time>2026-05-03T09:50:18.832Z</time></trkpt><trkpt lat="45.96802" lon="8.7880283"><ele>759.0</ele><time>2026-05-03T09:50:19.832Z</time></trkpt><trkpt lat="45.9679633" lon="8.7881633"><ele>761.2</ele><time>2026-05-03T09:50:20.832Z</time></trkpt><trkpt lat="45.9679033" lon="8.7882967"><ele>763.4000000000001</ele><time>2026-05-03T09:50:21.832Z</time></trkpt><trkpt lat="45.9678617" lon="8.7884233"><ele>765.6</ele><time>2026-05-03T09:50:22.832Z</time></trkpt><trkpt lat="45.9678317" lon="8.7885317"><ele>767.8</ele><time>2026-05-03T09:50:23.832Z</time></trkpt><trkpt lat="45.967835" lon="8.7886917"><ele>770.0</ele><time>2026-05-03T09:50:25.832Z</time></trkpt><trkpt lat="45.967875" lon="8.7888483"><ele>771.4</ele><time>2026-05-03T09:50:27.832Z</time></trkpt><trkpt lat="45.967905" lon="8.78901"><ele>772.8</ele><time>2026-05-03T09:50:29.832Z</time></trkpt><trkpt lat="45.9678883" lon="8.789195"><ele>774.2</ele><time>2026-05-03T09:50:31.832Z</time></trkpt><trkpt lat="45.9678483" lon="8.7893"><ele>775.6</ele><time>2026-05-03T09:50:32.832Z</time></trkpt><trkpt lat="45.9678" lon="8.789395"><ele>777.0</ele><time>2026-05-03T09:50:33.832Z</time></trkpt><trkpt lat="45.9677567" lon="8.7894933"><ele>779.2</ele><time>2026-05-03T09:50:34.832Z</time></trkpt><trkpt lat="45.9677167" lon="8.7895967"><ele>781.4000000000001</ele><time>2026-05-03T09:50:35.832Z</time></trkpt><trkpt lat="45.9676933" lon="8.789715"><ele>783.5999999999999</ele><time>2026-05-03T09:50:36.831Z</time></trkpt><trkpt lat="45.9676733" lon="8.78986"><ele>785.8</ele><time>2026-05-03T09:50:37.832Z</time></trkpt><trkpt lat="45.967645" lon="8.79"><ele>788.0</ele><time>2026-05-03T09:50:38.832Z</time></trkpt><trkpt lat="45.96763" lon="8.7901267"><ele>790.0</ele><time>2026-05-03T09:50:39.832Z</time></trkpt><trkpt lat="45.9676233" lon="8.7902417"><ele>792.0</ele><time>2026-05-03T09:50:40.832Z</time></trkpt><trkpt lat="45.96762" lon="8.79037"><ele>794.0</ele><time>2026-05-03T09:50:41.832Z</time></trkpt><trkpt lat="45.9676233" lon="8.790505"><ele>796.0</ele><time>2026-05-03T09:50:42.831Z</time></trkpt><trkpt lat="45.9676183" lon="8.7906633"><ele>798.0</ele><time>2026-05-03T09:50:43.832Z</time></trkpt><trkpt lat="45.96765" lon="8.7908083"><ele>798.0</ele><time>2026-05-03T09:50:44.832Z</time></trkpt><trkpt lat="45.96766" lon="8.7909467"><ele>798.0</ele><time>2026-05-03T09:50:45.832Z</time></trkpt><trkpt lat="45.967655" lon="8.7910717"><ele>798.0</ele><time>2026-05-03T09:50:46.832Z</time></trkpt><trkpt lat="45.96764" lon="8.7912017"><ele>798.0</ele><time>2026-05-03T09:50:47.831Z</time></trkpt><trkpt lat="45.9676267" lon="8.7913417"><ele>798.0</ele><time>2026-05-03T09:50:48.831Z</time></trkpt><trkpt lat="45.967615" lon="8.7914683"><ele>799.8333333333334</ele><time>2026-05-03T09:50:49.832Z</time></trkpt><trkpt lat="45.9676033" lon="8.7915983"><ele>801.6666666666667</ele><time>2026-05-03T09:50:50.832Z</time></trkpt><trkpt lat="45.9676033" lon="8.7917083"><ele>803.5</ele><time>2026-05-03T09:50:51.832Z</time></trkpt><trkpt lat="45.96759" lon="8.79182"><ele>805.3333333333334</ele><time>2026-05-03T09:50:52.831Z</time></trkpt><trkpt lat="45.9675833" lon="8.7919117"><ele>807.1666666666667</ele><time>2026-05-03T09:50:53.832Z</time></trkpt><trkpt lat="45.9676067" lon="8.7920183"><ele>809.0</ele><time>2026-05-03T09:50:55.832Z</time></trkpt><trkpt lat="45.967675" lon="8.792035"><ele>809.0</ele><time>2026-05-03T09:50:58.831Z</time></trkpt><trkpt lat="45.9677283" lon="8.7919217"><ele>809.0</ele><time>2026-05-03T09:51:00.831Z</time></trkpt><trkpt lat="45.967775" lon="8.791785"><ele>809.0</ele><time>2026-05-03T09:51:02.832Z</time></trkpt><trkpt lat="45.9678383" lon="8.7916433"><ele>809.0</ele><time>2026-05-03T09:51:04.831Z</time></trkpt><trkpt lat="45.9678733" lon="8.79156"><ele>809.0</ele><time>2026-05-03T09:51:06.832Z</time></trkpt><trkpt lat="45.9678833" lon="8.7916733"><ele>809.0</ele><time>2026-05-03T09:51:26.832Z</time></trkpt><trkpt lat="45.9679067" lon="8.791845"><ele>809.0</ele><time>2026-05-03T09:51:28.832Z</time></trkpt><trkpt lat="45.9679117" lon="8.7919367"><ele>809.0</ele><time>2026-05-03T09:51:29.832Z</time></trkpt><trkpt lat="45.9679117" lon="8.7921167"><ele>809.0</ele><time>2026-05-03T09:51:31.832Z</time></trkpt><trkpt lat="45.9679383" lon="8.79226"><ele>809.0</ele><time>2026-05-03T09:51:33.832Z</time></trkpt><trkpt lat="45.96798" lon="8.79238"><ele>809.0000000000001</ele><time>2026-05-03T09:51:35.832Z</time></trkpt><trkpt lat="45.9680317" lon="8.79251"><ele>809.0</ele><time>2026-05-03T09:51:37.832Z</time></trkpt><trkpt lat="45.96811" lon="8.79261"><ele>809.0</ele><time>2026-05-03T09:51:40.831Z</time></trkpt><trkpt lat="45.9681717" lon="8.7926433"><ele>809.0</ele><time>2026-05-03T09:51:43.832Z</time></trkpt><trkpt lat="45.9682417" lon="8.7926917"><ele>809.0000000000001</ele><time>2026-05-03T09:51:46.831Z</time></trkpt><trkpt lat="45.9682" lon="8.7927683"><ele>809.0</ele><time>2026-05-03T09:51:50.832Z</time></trkpt><trkpt lat="45.9681483" lon="8.7928267"><ele>809.0000000000001</ele><time>2026-05-03T09:51:52.832Z</time></trkpt><trkpt lat="45.96811" lon="8.7929183"><ele>809.0</ele><time>2026-05-03T09:51:54.832Z</time></trkpt><trkpt lat="45.9680767" lon="8.7930183"><ele>809.0</ele><time>2026-05-03T09:51:56.832Z</time></trkpt><trkpt lat="45.9680617" lon="8.7931417"><ele>809.0</ele><time>2026-05-03T09:51:58.832Z</time></trkpt><trkpt lat="45.9680433" lon="8.793265"><ele>809.0000000000001</ele><time>2026-05-03T09:52:00.832Z</time></trkpt><trkpt lat="45.9680383" lon="8.7933717"><ele>809.0</ele><time>2026-05-03T09:52:02.832Z</time></trkpt><trkpt lat="45.968045" lon="8.7935"><ele>809.8000000000001</ele><time>2026-05-03T09:52:04.832Z</time></trkpt><trkpt lat="45.968055" lon="8.7936317"><ele>810.6</ele><time>2026-05-03T09:52:06.832Z</time></trkpt><trkpt lat="45.9680717" lon="8.79384"><ele>811.4</ele><time>2026-05-03T09:54:24.83Z</time></trkpt><trkpt lat="45.9680333" lon="8.7939483"><ele>812.2</ele><time>2026-05-03T09:57:35.83Z</time></trkpt><trkpt lat="45.9680667" lon="8.7940317"><ele>813.0</ele><time>2026-05-03T09:58:49.831Z</time></trkpt><trkpt lat="45.968075" lon="8.7941783"><ele>813.0</ele><time>2026-05-03T09:59:08.831Z</time></trkpt><trkpt lat="45.9681083" lon="8.79427"><ele>813.0</ele><time>2026-05-03T10:01:11.83Z</time></trkpt><trkpt lat="45.9681" lon="8.7943817"><ele>813.0</ele><time>2026-05-03T10:01:17.831Z</time></trkpt><trkpt lat="45.968095" lon="8.7945117"><ele>813.0</ele><time>2026-05-03T10:01:20.83Z</time></trkpt><trkpt lat="45.9681033" lon="8.794635"><ele>813.0</ele><time>2026-05-03T10:01:23.831Z</time></trkpt><trkpt lat="45.9681217" lon="8.794725"><ele>813.0</ele><time>2026-05-03T10:01:25.83Z</time></trkpt><trkpt lat="45.96815" lon="8.7948133"><ele>814.0</ele><time>2026-05-03T10:01:27.83Z</time></trkpt><trkpt lat="45.968195" lon="8.7949133"><ele>815.0</ele><time>2026-05-03T10:01:30.829Z</time></trkpt><trkpt lat="45.9682083" lon="8.79501"><ele>816.0</ele><time>2026-05-03T10:01:33.83Z</time></trkpt><trkpt lat="45.9682167" lon="8.7951133"><ele>817.0</ele><time>2026-05-03T10:01:39.829Z</time></trkpt><trkpt lat="45.9682" lon="8.7952267"><ele>818.0</ele><time>2026-05-03T10:01:46.83Z</time></trkpt><trkpt lat="45.9681217" lon="8.795365"><ele>819.0</ele><time>2026-05-03T10:01:50.829Z</time></trkpt><trkpt lat="45.968065" lon="8.795485"><ele>820.5</ele><time>2026-05-03T10:01:53.83Z</time></trkpt><trkpt lat="45.96805" lon="8.7955867"><ele>822.0</ele><time>2026-05-03T10:01:56.83Z</time></trkpt><trkpt lat="45.9680517" lon="8.7957033"><ele>823.5</ele><time>2026-05-03T10:01:59.829Z</time></trkpt><trkpt lat="45.968045" lon="8.795835"><ele>825.0</ele><time>2026-05-03T10:02:02.83Z</time></trkpt><trkpt lat="45.9680383" lon="8.7959683"><ele>826.5</ele><time>2026-05-03T10:02:05.83Z</time></trkpt><trkpt lat="45.968035" lon="8.7961133"><ele>828.0</ele><time>2026-05-03T10:02:08.829Z</time></trkpt><trkpt lat="45.968045" lon="8.7962067"><ele>829.1428571428572</ele><time>2026-05-03T10:02:10.829Z</time></trkpt><trkpt lat="45.968045" lon="8.7962983"><ele>830.2857142857143</ele><time>2026-05-03T10:02:12.83Z</time></trkpt><trkpt lat="45.968055" lon="8.7964033"><ele>831.4285714285714</ele><time>2026-05-03T10:02:15.83Z</time></trkpt><trkpt lat="45.9680483" lon="8.796515"><ele>832.5714285714287</ele><time>2026-05-03T10:02:18.83Z</time></trkpt><trkpt lat="45.9680467" lon="8.7966083"><ele>833.7142857142857</ele><time>2026-05-03T10:02:21.829Z</time></trkpt><trkpt lat="45.9680217" lon="8.7967017"><ele>834.8571428571429</ele><time>2026-05-03T10:02:27.83Z</time></trkpt><trkpt lat="45.967985" lon="8.7968317"><ele>836.0</ele><time>2026-05-03T10:02:37.83Z</time></trkpt><trkpt lat="45.96797" lon="8.7969733"><ele>836.0000000000001</ele><time>2026-05-03T10:02:40.829Z</time></trkpt><trkpt lat="45.9679617" lon="8.7970917"><ele>836.0</ele><time>2026-05-03T10:02:42.83Z</time></trkpt><trkpt lat="45.967965" lon="8.7971933"><ele>836.0</ele><time>2026-05-03T10:02:44.829Z</time></trkpt><trkpt lat="45.9679667" lon="8.7973033"><ele>836.0</ele><time>2026-05-03T10:02:47.83Z</time></trkpt><trkpt lat="45.96794" lon="8.797415"><ele>836.0000000000001</ele><time>2026-05-03T10:02:50.83Z</time></trkpt><trkpt lat="45.9679383" lon="8.7975317"><ele>836.0</ele><time>2026-05-03T10:02:53.829Z</time></trkpt><trkpt lat="45.96795" lon="8.7976583"><ele>836.1666666666667</ele><time>2026-05-03T10:02:57.83Z</time></trkpt><trkpt lat="45.9679683" lon="8.7977567"><ele>836.3333333333334</ele><time>2026-05-03T10:03:03.829Z</time></trkpt><trkpt lat="45.967905" lon="8.7979017"><ele>836.5</ele><time>2026-05-03T10:03:37.83Z</time></trkpt><trkpt lat="45.9679717" lon="8.7979233"><ele>836.6666666666667</ele><time>2026-05-03T10:06:44.83Z</time></trkpt><trkpt lat="45.9680167" lon="8.79799"><ele>836.8333333333334</ele><time>2026-05-03T10:06:53.83Z</time></trkpt><trkpt lat="45.9680433" lon="8.798085"><ele>837.0</ele><time>2026-05-03T10:07:18.83Z</time></trkpt><trkpt lat="45.96808" lon="8.79816"><ele>837.0</ele><time>2026-05-03T10:07:28.83Z</time></trkpt><trkpt lat="45.9681" lon="8.79829"><ele>837.0</ele><time>2026-05-03T10:11:39.828Z</time></trkpt><trkpt lat="45.9681" lon="8.7983867"><ele>837.0</ele><time>2026-05-03T10:11:58.828Z</time></trkpt><trkpt lat="45.9681267" lon="8.7984867"><ele>837.0</ele><time>2026-05-03T10:12:19.829Z</time></trkpt><trkpt lat="45.96808" lon="8.798565"><ele>837.0</ele><time>2026-05-03T10:12:24.829Z</time></trkpt><trkpt lat="45.9680233" lon="8.7986467"><ele>837.0</ele><time>2026-05-03T10:12:29.829Z</time></trkpt><trkpt lat="45.96796" lon="8.7987433"><ele>838.5</ele><time>2026-05-03T10:12:32.829Z</time></trkpt><trkpt lat="45.9679" lon="8.798845"><ele>840.0</ele><time>2026-05-03T10:12:35.828Z</time></trkpt><trkpt lat="45.9678617" lon="8.7989467"><ele>841.5</ele><time>2026-05-03T10:12:38.829Z</time></trkpt><trkpt lat="45.967805" lon="8.7990483"><ele>843.0</ele><time>2026-05-03T10:13:07.827Z</time></trkpt><trkpt lat="45.967765" lon="8.7991517"><ele>844.5</ele><time>2026-05-03T10:13:19.828Z</time></trkpt><trkpt lat="45.96771" lon="8.7992333"><ele>846.0</ele><time>2026-05-03T10:13:22.828Z</time></trkpt><trkpt lat="45.9676633" lon="8.7993"><ele>848.5</ele><time>2026-05-03T10:13:24.827Z</time></trkpt><trkpt lat="45.967595" lon="8.7993783"><ele>851.0</ele><time>2026-05-03T10:13:26.828Z</time></trkpt><trkpt lat="45.9675283" lon="8.7994433"><ele>853.5</ele><time>2026-05-03T10:13:28.828Z</time></trkpt><trkpt lat="45.9674617" lon="8.7995033"><ele>856.0</ele><time>2026-05-03T10:13:30.828Z</time></trkpt><trkpt lat="45.967395" lon="8.799565"><ele>858.5</ele><time>2026-05-03T10:13:32.828Z</time></trkpt><trkpt lat="45.9673267" lon="8.7996283"><ele>861.0</ele><time>2026-05-03T10:13:34.828Z</time></trkpt><trkpt lat="45.967255" lon="8.799685"><ele>854.5999999999999</ele><time>2026-05-03T10:13:36.828Z</time></trkpt><trkpt lat="45.9671833" lon="8.79971"><ele>848.1999999999999</ele><time>2026-05-03T10:13:38.827Z</time></trkpt><trkpt lat="45.9670833" lon="8.7997017"><ele>841.8</ele><time>2026-05-03T10:13:40.827Z</time></trkpt><trkpt lat="45.9669767" lon="8.7996633"><ele>835.4000000000001</ele><time>2026-05-03T10:13:42.827Z</time></trkpt><trkpt lat="45.9668733" lon="8.7996417"><ele>829.0</ele><time>2026-05-03T10:13:44.828Z</time></trkpt><trkpt lat="45.9667933" lon="8.7996817"><ele>829.0</ele><time>2026-05-03T10:13:46.828Z</time></trkpt><trkpt lat="45.9667167" lon="8.7997817"><ele>829.0</ele><time>2026-05-03T10:13:48.828Z</time></trkpt><trkpt lat="45.9666483" lon="8.7999067"><ele>829.0</ele><time>2026-05-03T10:13:50.828Z</time></trkpt><trkpt lat="45.9666" lon="8.8000267"><ele>829.0</ele><time>2026-05-03T10:13:52.828Z</time></trkpt><trkpt lat="45.966505" lon="8.8001983"><ele>830.3333333333333</ele><time>2026-05-03T10:14:51.828Z</time></trkpt><trkpt lat="45.9664433" lon="8.8002217"><ele>831.6666666666666</ele><time>2026-05-03T10:18:24.826Z</time></trkpt><trkpt lat="45.96642" lon="8.8003167"><ele>833.0</ele><time>2026-05-03T10:18:30.827Z</time></trkpt><trkpt lat="45.9664167" lon="8.80041"><ele>834.3333333333333</ele><time>2026-05-03T10:18:34.827Z</time></trkpt><trkpt lat="45.9663833" lon="8.8005383"><ele>835.6666666666666</ele><time>2026-05-03T10:18:54.827Z</time></trkpt><trkpt lat="45.9663367" lon="8.80064"><ele>837.0</ele><time>2026-05-03T10:18:56.827Z</time></trkpt><trkpt lat="45.9662783" lon="8.8007533"><ele>837.0</ele><time>2026-05-03T10:18:58.827Z</time></trkpt><trkpt lat="45.9662333" lon="8.8008617"><ele>837.0</ele><time>2026-05-03T10:19:00.827Z</time></trkpt><trkpt lat="45.9661683" lon="8.8009867"><ele>837.0</ele><time>2026-05-03T10:19:02.827Z</time></trkpt><trkpt lat="45.9661183" lon="8.80113"><ele>837.0</ele><time>2026-05-03T10:19:04.826Z</time></trkpt><trkpt lat="45.9660683" lon="8.8012917"><ele>837.0</ele><time>2026-05-03T10:19:06.827Z</time></trkpt><trkpt lat="45.9660267" lon="8.8014567"><ele>839.8</ele><time>2026-05-03T10:19:08.827Z</time></trkpt><trkpt lat="45.9659933" lon="8.8016"><ele>842.6</ele><time>2026-05-03T10:19:10.826Z</time></trkpt><trkpt lat="45.9659733" lon="8.801755"><ele>845.4</ele><time>2026-05-03T10:19:12.827Z</time></trkpt><trkpt lat="45.965975" lon="8.8019317"><ele>848.1999999999999</ele><time>2026-05-03T10:19:14.827Z</time></trkpt><trkpt lat="45.9659667" lon="8.8020383"><ele>851.0</ele><time>2026-05-03T10:19:15.826Z</time></trkpt><trkpt lat="45.96596" lon="8.8021433"><ele>852.1666666666667</ele><time>2026-05-03T10:19:16.827Z</time></trkpt><trkpt lat="45.9659583" lon="8.802245"><ele>853.3333333333334</ele><time>2026-05-03T10:19:17.827Z</time></trkpt><trkpt lat="45.9659667" lon="8.80234"><ele>854.5</ele><time>2026-05-03T10:19:18.827Z</time></trkpt><trkpt lat="45.9659783" lon="8.802445"><ele>855.6666666666667</ele><time>2026-05-03T10:19:19.827Z</time></trkpt><trkpt lat="45.9659883" lon="8.80255"><ele>856.8333333333334</ele><time>2026-05-03T10:19:20.826Z</time></trkpt><trkpt lat="45.966005" lon="8.8026883"><ele>858.0</ele><time>2026-05-03T10:19:22.826Z</time></trkpt><trkpt lat="45.96608" lon="8.8027167"><ele>858.0</ele><time>2026-05-03T10:19:25.827Z</time></trkpt><trkpt lat="45.9661233" lon="8.8026417"><ele>858.0</ele><time>2026-05-03T10:19:27.827Z</time></trkpt><trkpt lat="45.9661633" lon="8.8025233"><ele>858.0</ele><time>2026-05-03T10:19:30.827Z</time></trkpt><trkpt lat="45.966175" lon="8.802425"><ele>858.0</ele><time>2026-05-03T10:19:32.827Z</time></trkpt><trkpt lat="45.9661833" lon="8.8023"><ele>858.0</ele><time>2026-05-03T10:19:35.827Z</time></trkpt><trkpt lat="45.9662217" lon="8.8023733"><ele>858.0</ele><time>2026-05-03T10:23:20.826Z</time></trkpt><trkpt lat="45.9662117" lon="8.8024983"><ele>858.0</ele><time>2026-05-03T10:23:23.827Z</time></trkpt><trkpt lat="45.9661833" lon="8.8026317"><ele>858.0</ele><time>2026-05-03T10:23:25.826Z</time></trkpt><trkpt lat="45.9661483" lon="8.8028"><ele>858.0</ele><time>2026-05-03T10:23:27.826Z</time></trkpt><trkpt lat="45.9661233" lon="8.8029683"><ele>858.0</ele><time>2026-05-03T10:23:29.827Z</time></trkpt><trkpt lat="45.9660833" lon="8.8031183"><ele>858.4</ele><time>2026-05-03T10:23:31.826Z</time></trkpt><trkpt lat="45.9660583" lon="8.8032983"><ele>858.8</ele><time>2026-05-03T10:23:33.825Z</time></trkpt><trkpt lat="45.96605" lon="8.803415"><ele>859.2</ele><time>2026-05-03T10:23:34.826Z</time></trkpt><trkpt lat="45.9660567" lon="8.8035733"><ele>859.6</ele><time>2026-05-03T10:23:35.826Z</time></trkpt><trkpt lat="45.966065" lon="8.8037567"><ele>860.0</ele><time>2026-05-03T10:23:36.826Z</time></trkpt><trkpt lat="45.966085" lon="8.8039333"><ele>860.0</ele><time>2026-05-03T10:23:37.826Z</time></trkpt><trkpt lat="45.9661067" lon="8.8041067"><ele>860.0</ele><time>2026-05-03T10:23:38.826Z</time></trkpt><trkpt lat="45.9661167" lon="8.8042617"><ele>860.0</ele><time>2026-05-03T10:23:39.825Z</time></trkpt><trkpt lat="45.9661267" lon="8.8043967"><ele>860.0</ele><time>2026-05-03T10:23:40.826Z</time></trkpt><trkpt lat="45.96613" lon="8.8045217"><ele>860.0</ele><time>2026-05-03T10:23:41.826Z</time></trkpt><trkpt lat="45.96614" lon="8.8046333"><ele>857.5000000000001</ele><time>2026-05-03T10:23:42.826Z</time></trkpt><trkpt lat="45.96614" lon="8.8047283"><ele>855.0</ele><time>2026-05-03T10:23:43.825Z</time></trkpt><trkpt lat="45.9661467" lon="8.8049017"><ele>852.5</ele><time>2026-05-03T10:23:45.826Z</time></trkpt><trkpt lat="45.9661567" lon="8.8049933"><ele>850.0</ele><time>2026-05-03T10:23:46.826Z</time></trkpt><trkpt lat="45.9661817" lon="8.8050933"><ele>847.5000000000001</ele><time>2026-05-03T10:23:47.826Z</time></trkpt><trkpt lat="45.9662167" lon="8.8051983"><ele>845.0</ele><time>2026-05-03T10:23:48.826Z</time></trkpt><trkpt lat="45.9662467" lon="8.8053183"><ele>841.6</ele><time>2026-05-03T10:23:49.825Z</time></trkpt><trkpt lat="45.96628" lon="8.805445"><ele>838.2</ele><time>2026-05-03T10:23:50.826Z</time></trkpt><trkpt lat="45.966325" lon="8.8055883"><ele>834.8</ele><time>2026-05-03T10:23:51.825Z</time></trkpt><trkpt lat="45.96637" lon="8.8057283"><ele>831.4</ele><time>2026-05-03T10:23:52.826Z</time></trkpt><trkpt lat="45.96641" lon="8.805835"><ele>828.0</ele><time>2026-05-03T10:23:53.825Z</time></trkpt><trkpt lat="45.9664517" lon="8.8059267"><ele>828.0</ele><time>2026-05-03T10:23:54.826Z</time></trkpt><trkpt lat="45.9664967" lon="8.8060033"><ele>828.0</ele><time>2026-05-03T10:23:55.825Z</time></trkpt><trkpt lat="45.9665967" lon="8.8060617"><ele>828.0</ele><time>2026-05-03T10:23:57.826Z</time></trkpt><trkpt lat="45.966695" lon="8.806065"><ele>828.0</ele><time>2026-05-03T10:23:59.825Z</time></trkpt><trkpt lat="45.9667733" lon="8.8060283"><ele>828.0</ele><time>2026-05-03T10:24:02.825Z</time></trkpt><trkpt lat="45.96669" lon="8.8059883"><ele>828.0</ele><time>2026-05-03T10:24:27.825Z</time></trkpt><trkpt lat="45.9666017" lon="8.805975"><ele>828.0</ele><time>2026-05-03T10:24:29.826Z</time></trkpt><trkpt lat="45.96651" lon="8.8058983"><ele>828.0</ele><time>2026-05-03T10:24:31.826Z</time></trkpt><trkpt lat="45.96647" lon="8.805825"><ele>828.0</ele><time>2026-05-03T10:24:32.826Z</time></trkpt><trkpt lat="45.9664367" lon="8.8057367"><ele>828.0</ele><time>2026-05-03T10:24:33.826Z</time></trkpt><trkpt lat="45.966395" lon="8.80562"><ele>828.0</ele><time>2026-05-03T10:24:34.826Z</time></trkpt><trkpt lat="45.9663483" lon="8.8054767"><ele>828.0</ele><time>2026-05-03T10:24:35.825Z</time></trkpt><trkpt lat="45.9663067" lon="8.805335"><ele>828.0</ele><time>2026-05-03T10:24:36.826Z</time></trkpt><trkpt lat="45.96627" lon="8.80519"><ele>828.0</ele><time>2026-05-03T10:24:37.826Z</time></trkpt><trkpt lat="45.96624" lon="8.80505"><ele>828.0</ele><time>2026-05-03T10:24:38.825Z</time></trkpt><trkpt lat="45.9662267" lon="8.804925"><ele>828.0</ele><time>2026-05-03T10:24:39.826Z</time></trkpt><trkpt lat="45.9662217" lon="8.8047917"><ele>828.0</ele><time>2026-05-03T10:24:40.826Z</time></trkpt><trkpt lat="45.9662267" lon="8.804635"><ele>832.25</ele><time>2026-05-03T10:24:41.826Z</time></trkpt><trkpt lat="45.966225" lon="8.8044567"><ele>836.5</ele><time>2026-05-03T10:24:42.826Z</time></trkpt><trkpt lat="45.9662217" lon="8.80427"><ele>840.75</ele><time>2026-05-03T10:24:43.826Z</time></trkpt><trkpt lat="45.9662133" lon="8.8040983"><ele>845.0</ele><time>2026-05-03T10:24:44.826Z</time></trkpt><trkpt lat="45.9662" lon="8.803925"><ele>848.0</ele><time>2026-05-03T10:24:45.826Z</time></trkpt><trkpt lat="45.9661867" lon="8.803755"><ele>851.0</ele><time>2026-05-03T10:24:46.826Z</time></trkpt><trkpt lat="45.9661733" lon="8.80359"><ele>854.0</ele><time>2026-05-03T10:24:47.826Z</time></trkpt><trkpt lat="45.966165" lon="8.8034367"><ele>857.0</ele><time>2026-05-03T10:24:48.826Z</time></trkpt><trkpt lat="45.96616" lon="8.8032983"><ele>860.0</ele><time>2026-05-03T10:24:49.826Z</time></trkpt><trkpt lat="45.9661717" lon="8.8031683"><ele>859.6666666666667</ele><time>2026-05-03T10:24:50.826Z</time></trkpt><trkpt lat="45.9661783" lon="8.8030433"><ele>859.3333333333334</ele><time>2026-05-03T10:24:51.826Z</time></trkpt><trkpt lat="45.9662083" lon="8.8029083"><ele>859.0</ele><time>2026-05-03T10:24:52.826Z</time></trkpt><trkpt lat="45.9662367" lon="8.8027867"><ele>858.6666666666667</ele><time>2026-05-03T10:24:53.826Z</time></trkpt><trkpt lat="45.96627" lon="8.8026617"><ele>858.3333333333334</ele><time>2026-05-03T10:24:54.826Z</time></trkpt><trkpt lat="45.9663" lon="8.8025633"><ele>858.0</ele><time>2026-05-03T10:24:55.826Z</time></trkpt><trkpt lat="45.9663233" lon="8.8024733"><ele>858.0</ele><time>2026-05-03T10:24:56.826Z</time></trkpt><trkpt lat="45.96636" lon="8.8023067"><ele>858.0</ele><time>2026-05-03T10:24:58.826Z</time></trkpt><trkpt lat="45.9663883" lon="8.8021333"><ele>858.0</ele><time>2026-05-03T10:25:00.825Z</time></trkpt><trkpt lat="45.9664083" lon="8.8020267"><ele>858.0</ele><time>2026-05-03T10:25:01.826Z</time></trkpt><trkpt lat="45.9664483" lon="8.801905"><ele>858.0</ele><time>2026-05-03T10:25:02.825Z</time></trkpt><trkpt lat="45.9665167" lon="8.80177"><ele>856.5999999999999</ele><time>2026-05-03T10:25:03.826Z</time></trkpt><trkpt lat="45.9665833" lon="8.8016333"><ele>855.1999999999999</ele><time>2026-05-03T10:25:04.826Z</time></trkpt><trkpt lat="45.9666467" lon="8.801515"><ele>853.8</ele><time>2026-05-03T10:25:05.826Z</time></trkpt><trkpt lat="45.9667067" lon="8.8014117"><ele>852.4</ele><time>2026-05-03T10:25:06.826Z</time></trkpt><trkpt lat="45.9667617" lon="8.8013233"><ele>851.0</ele><time>2026-05-03T10:25:07.826Z</time></trkpt><trkpt lat="45.96681" lon="8.801245"><ele>851.0000000000001</ele><time>2026-05-03T10:25:08.826Z</time></trkpt><trkpt lat="45.966875" lon="8.8011433"><ele>851.0</ele><time>2026-05-03T10:25:10.826Z</time></trkpt><trkpt lat="45.9669383" lon="8.8011367"><ele>851.0</ele><time>2026-05-03T10:25:14.825Z</time></trkpt><trkpt lat="45.966925" lon="8.801045"><ele>851.0</ele><time>2026-05-03T10:25:25.826Z</time></trkpt><trkpt lat="45.9669483" lon="8.800955"><ele>851.0000000000001</ele><time>2026-05-03T10:25:27.825Z</time></trkpt><trkpt lat="45.96694" lon="8.80081"><ele>851.0</ele><time>2026-05-03T10:28:22.826Z</time></trkpt><trkpt lat="45.96689" lon="8.800895"><ele>851.0</ele><time>2026-05-03T10:28:26.825Z</time></trkpt><trkpt lat="45.96688" lon="8.801"><ele>851.0</ele><time>2026-05-03T10:28:28.826Z</time></trkpt><trkpt lat="45.96687" lon="8.8011167"><ele>851.0</ele><time>2026-05-03T10:28:30.826Z</time></trkpt><trkpt lat="45.9668067" lon="8.80127"><ele>851.0</ele><time>2026-05-03T10:28:32.826Z</time></trkpt><trkpt lat="45.9667483" lon="8.80138"><ele>851.0</ele><time>2026-05-03T10:28:33.826Z</time></trkpt><trkpt lat="45.9666867" lon="8.801505"><ele>851.0</ele><time>2026-05-03T10:28:34.825Z</time></trkpt><trkpt lat="45.9666333" lon="8.8016383"><ele>851.0</ele><time>2026-05-03T10:28:35.826Z</time></trkpt><trkpt lat="45.966595" lon="8.8017833"><ele>851.0</ele><time>2026-05-03T10:28:36.825Z</time></trkpt><trkpt lat="45.966565" lon="8.8019333"><ele>851.0</ele><time>2026-05-03T10:28:37.826Z</time></trkpt><trkpt lat="45.9665417" lon="8.80209"><ele>851.0</ele><time>2026-05-03T10:28:38.826Z</time></trkpt><trkpt lat="45.9665217" lon="8.8022533"><ele>852.75</ele><time>2026-05-03T10:28:39.825Z</time></trkpt><trkpt lat="45.9664967" lon="8.8024383"><ele>854.5</ele><time>2026-05-03T10:28:40.826Z</time></trkpt><trkpt lat="45.9664767" lon="8.8026267"><ele>856.25</ele><time>2026-05-03T10:28:41.826Z</time></trkpt><trkpt lat="45.96646" lon="8.8028117"><ele>858.0</ele><time>2026-05-03T10:28:42.826Z</time></trkpt><trkpt lat="45.966445" lon="8.8029833"><ele>859.0</ele><time>2026-05-03T10:28:43.826Z</time></trkpt><trkpt lat="45.9664317" lon="8.8031267"><ele>860.0</ele><time>2026-05-03T10:28:44.826Z</time></trkpt><trkpt lat="45.9664217" lon="8.803245"><ele>861.0</ele><time>2026-05-03T10:28:45.826Z</time></trkpt><trkpt lat="45.9664183" lon="8.8033383"><ele>862.0</ele><time>2026-05-03T10:28:46.826Z</time></trkpt><trkpt lat="45.9664367" lon="8.8034733"><ele>863.0</ele><time>2026-05-03T10:28:48.826Z</time></trkpt><trkpt lat="45.9665183" lon="8.8034617"><ele>864.0</ele><time>2026-05-03T10:28:50.826Z</time></trkpt><trkpt lat="45.966555" lon="8.8033867"><ele>864.0</ele><time>2026-05-03T10:28:51.826Z</time></trkpt><trkpt lat="45.9665917" lon="8.8032767"><ele>864.0</ele><time>2026-05-03T10:28:52.826Z</time></trkpt><trkpt lat="45.9666367" lon="8.803125"><ele>864.0</ele><time>2026-05-03T10:28:53.826Z</time></trkpt><trkpt lat="45.966685" lon="8.8029533"><ele>864.0</ele><time>2026-05-03T10:28:54.826Z</time></trkpt><trkpt lat="45.9667383" lon="8.8027833"><ele>869.0</ele><time>2026-05-03T10:28:55.826Z</time></trkpt><trkpt lat="45.9667883" lon="8.8026233"><ele>874.0000000000001</ele><time>2026-05-03T10:28:56.825Z</time></trkpt><trkpt lat="45.9668433" lon="8.8024783"><ele>879.0000000000001</ele><time>2026-05-03T10:28:57.826Z</time></trkpt><trkpt lat="45.9669" lon="8.80236"><ele>884.0</ele><time>2026-05-03T10:28:58.826Z</time></trkpt><trkpt lat="45.9669617" lon="8.80226"><ele>889.0</ele><time>2026-05-03T10:28:59.826Z</time></trkpt><trkpt lat="45.9670283" lon="8.8021783"><ele>888.9999999999999</ele><time>2026-05-03T10:29:00.826Z</time></trkpt><trkpt lat="45.9671083" lon="8.8021083"><ele>889.0</ele><time>2026-05-03T10:29:01.824Z</time></trkpt><trkpt lat="45.9671867" lon="8.802035"><ele>889.0</ele><time>2026-05-03T10:29:02.824Z</time></trkpt><trkpt lat="45.967255" lon="8.8019533"><ele>889.0</ele><time>2026-05-03T10:29:03.824Z</time></trkpt><trkpt lat="45.9673183" lon="8.80189"><ele>888.9999999999999</ele><time>2026-05-03T10:29:04.825Z</time></trkpt><trkpt lat="45.9673767" lon="8.8018533"><ele>889.0</ele><time>2026-05-03T10:29:05.824Z</time></trkpt><trkpt lat="45.96744" lon="8.8018483"><ele>888.9999999999999</ele><time>2026-05-03T10:29:06.825Z</time></trkpt><trkpt lat="45.9675017" lon="8.801885"><ele>889.0</ele><time>2026-05-03T10:29:07.824Z</time></trkpt><trkpt lat="45.967575" lon="8.8019533"><ele>889.0</ele><time>2026-05-03T10:29:08.825Z</time></trkpt><trkpt lat="45.9676533" lon="8.8020133"><ele>889.0</ele><time>2026-05-03T10:29:09.825Z</time></trkpt><trkpt lat="45.9677217" lon="8.8020483"><ele>888.9999999999999</ele><time>2026-05-03T10:29:10.825Z</time></trkpt><trkpt lat="45.9677867" lon="8.802065"><ele>889.0</ele><time>2026-05-03T10:29:11.824Z</time></trkpt><trkpt lat="45.9678667" lon="8.8020417"><ele>891.4999999999999</ele><time>2026-05-03T10:29:13.825Z</time></trkpt><trkpt lat="45.9679667" lon="8.801995"><ele>894.0</ele><time>2026-05-03T10:30:42.825Z</time></trkpt><trkpt lat="45.968035" lon="8.8020817"><ele>896.5</ele><time>2026-05-03T10:30:45.824Z</time></trkpt><trkpt lat="45.968085" lon="8.80215"><ele>899.0</ele><time>2026-05-03T10:30:47.825Z</time></trkpt><trkpt lat="45.9681467" lon="8.8022"><ele>901.4999999999999</ele><time>2026-05-03T10:30:49.825Z</time></trkpt><trkpt lat="45.968215" lon="8.8022417"><ele>904.0</ele><time>2026-05-03T10:30:51.825Z</time></trkpt><trkpt lat="45.96829" lon="8.8022783"><ele>907.8000000000001</ele><time>2026-05-03T10:30:53.825Z</time></trkpt><trkpt lat="45.968375" lon="8.802285"><ele>911.6000000000001</ele><time>2026-05-03T10:30:55.825Z</time></trkpt><trkpt lat="45.968475" lon="8.80226"><ele>915.4</ele><time>2026-05-03T10:30:57.825Z</time></trkpt><trkpt lat="45.9685717" lon="8.8022583"><ele>919.2</ele><time>2026-05-03T10:30:59.824Z</time></trkpt><trkpt lat="45.968675" lon="8.8022267"><ele>923.0</ele><time>2026-05-03T10:31:01.824Z</time></trkpt><trkpt lat="45.9687817" lon="8.8021933"><ele>923.0000000000001</ele><time>2026-05-03T10:31:03.824Z</time></trkpt><trkpt lat="45.96888" lon="8.8021833"><ele>923.0</ele><time>2026-05-03T10:31:05.825Z</time></trkpt><trkpt lat="45.9689433" lon="8.8021267"><ele>923.0</ele><time>2026-05-03T10:31:08.825Z</time></trkpt><trkpt lat="45.96898" lon="8.8020383"><ele>923.0</ele><time>2026-05-03T10:31:10.825Z</time></trkpt><trkpt lat="45.9689683" lon="8.8019333"><ele>923.0000000000001</ele><time>2026-05-03T10:31:12.824Z</time></trkpt><trkpt lat="45.96894" lon="8.801805"><ele>923.0</ele><time>2026-05-03T10:31:14.824Z</time></trkpt><trkpt lat="45.96895" lon="8.801635"><ele>921.8333333333334</ele><time>2026-05-03T10:31:16.825Z</time></trkpt><trkpt lat="45.9689583" lon="8.8015233"><ele>920.6666666666667</ele><time>2026-05-03T10:31:17.824Z</time></trkpt><trkpt lat="45.9689667" lon="8.8013783"><ele>919.5</ele><time>2026-05-03T10:31:18.824Z</time></trkpt><trkpt lat="45.9689933" lon="8.80125"><ele>918.3333333333333</ele><time>2026-05-03T10:31:19.825Z</time></trkpt><trkpt lat="45.96903" lon="8.8011233"><ele>917.1666666666666</ele><time>2026-05-03T10:31:20.825Z</time></trkpt><trkpt lat="45.96906" lon="8.801025"><ele>916.0</ele><time>2026-05-03T10:31:21.825Z</time></trkpt><trkpt lat="45.9690933" lon="8.8009367"><ele>915.9999999999999</ele><time>2026-05-03T10:31:22.825Z</time></trkpt><trkpt lat="45.96912" lon="8.8008417"><ele>916.0</ele><time>2026-05-03T10:31:23.825Z</time></trkpt><trkpt lat="45.9691467" lon="8.8009633"><ele>916.0</ele><time>2026-05-03T10:31:28.825Z</time></trkpt><trkpt lat="45.969125" lon="8.801075"><ele>916.0</ele><time>2026-05-03T10:31:30.825Z</time></trkpt><trkpt lat="45.969105" lon="8.8011733"><ele>915.9999999999999</ele><time>2026-05-03T10:31:32.825Z</time></trkpt><trkpt lat="45.9690783" lon="8.8013317"><ele>916.0</ele><time>2026-05-03T10:31:34.825Z</time></trkpt><trkpt lat="45.9690467" lon="8.8015083"><ele>915.9999999999999</ele><time>2026-05-03T10:31:36.825Z</time></trkpt><trkpt lat="45.9690267" lon="8.80161"><ele>916.0</ele><time>2026-05-03T10:31:37.825Z</time></trkpt><trkpt lat="45.9690117" lon="8.8017033"><ele>916.0</ele><time>2026-05-03T10:31:38.825Z</time></trkpt><trkpt lat="45.969015" lon="8.801865"><ele>916.0</ele><time>2026-05-03T10:31:40.825Z</time></trkpt><trkpt lat="45.9690583" lon="8.8019533"><ele>915.9999999999999</ele><time>2026-05-03T10:31:42.824Z</time></trkpt><trkpt lat="45.9691167" lon="8.802035"><ele>916.0</ele><time>2026-05-03T10:31:46.824Z</time></trkpt><trkpt lat="45.96919" lon="8.8020317"><ele>919.4999999999999</ele><time>2026-05-03T10:31:49.825Z</time></trkpt><trkpt lat="45.9692383" lon="8.8019733"><ele>923.0</ele><time>2026-05-03T10:31:51.824Z</time></trkpt><trkpt lat="45.969275" lon="8.8018367"><ele>926.5</ele><time>2026-05-03T10:31:53.825Z</time></trkpt><trkpt lat="45.9693" lon="8.80174"><ele>930.0</ele><time>2026-05-03T10:31:54.825Z</time></trkpt><trkpt lat="45.9693417" lon="8.80159"><ele>933.4999999999999</ele><time>2026-05-03T10:31:56.825Z</time></trkpt><trkpt lat="45.969375" lon="8.8014867"><ele>937.0</ele><time>2026-05-03T10:31:58.824Z</time></trkpt><trkpt lat="45.9694617" lon="8.80136"><ele>936.9999999999999</ele><time>2026-05-03T10:32:16.824Z</time></trkpt><trkpt lat="45.9695517" lon="8.8013217"><ele>937.0</ele><time>2026-05-03T10:32:18.825Z</time></trkpt><trkpt lat="45.9696233" lon="8.8013133"><ele>937.0</ele><time>2026-05-03T10:32:20.825Z</time></trkpt><trkpt lat="45.9695317" lon="8.8013133"><ele>937.0</ele><time>2026-05-03T10:32:37.824Z</time></trkpt><trkpt lat="45.9694667" lon="8.8013217"><ele>936.9999999999999</ele><time>2026-05-03T10:32:39.825Z</time></trkpt><trkpt lat="45.969445" lon="8.80123"><ele>937.0</ele><time>2026-05-03T10:32:42.825Z</time></trkpt><trkpt lat="45.9694717" lon="8.8011067"><ele>937.0</ele><time>2026-05-03T10:32:44.825Z</time></trkpt><trkpt lat="45.9694983" lon="8.8010183"><ele>937.0</ele><time>2026-05-03T10:32:45.824Z</time></trkpt><trkpt lat="45.9695267" lon="8.8009317"><ele>937.0</ele><time>2026-05-03T10:32:46.825Z</time></trkpt><trkpt lat="45.969555" lon="8.8008383"><ele>937.0</ele><time>2026-05-03T10:32:47.825Z</time></trkpt><trkpt lat="45.9695933" lon="8.800745"><ele>937.0</ele><time>2026-05-03T10:32:48.825Z</time></trkpt><trkpt lat="45.9696233" lon="8.800655"><ele>937.0</ele><time>2026-05-03T10:32:49.824Z</time></trkpt><trkpt lat="45.9696533" lon="8.800575"><ele>937.0</ele><time>2026-05-03T10:32:50.825Z</time></trkpt><trkpt lat="45.9697117" lon="8.800435"><ele>936.6666666666666</ele><time>2026-05-03T10:32:52.825Z</time></trkpt><trkpt lat="45.96975" lon="8.800345"><ele>936.3333333333333</ele><time>2026-05-03T10:32:53.825Z</time></trkpt><trkpt lat="45.96979" lon="8.8002417"><ele>936.0</ele><time>2026-05-03T10:32:54.825Z</time></trkpt><trkpt lat="45.9698317" lon="8.8001233"><ele>935.6666666666667</ele><time>2026-05-03T10:32:55.825Z</time></trkpt><trkpt lat="45.9698717" lon="8.799995"><ele>935.3333333333334</ele><time>2026-05-03T10:32:56.824Z</time></trkpt><trkpt lat="45.96992" lon="8.7998717"><ele>935.0</ele><time>2026-05-03T10:32:57.825Z</time></trkpt><trkpt lat="45.96996" lon="8.7997517"><ele>933.8333333333334</ele><time>2026-05-03T10:32:58.825Z</time></trkpt><trkpt lat="45.9700067" lon="8.7996367"><ele>932.6666666666667</ele><time>2026-05-03T10:32:59.825Z</time></trkpt><trkpt lat="45.9700483" lon="8.7995367"><ele>931.5</ele><time>2026-05-03T10:33:00.825Z</time></trkpt><trkpt lat="45.97008" lon="8.7994417"><ele>930.3333333333333</ele><time>2026-05-03T10:33:01.825Z</time></trkpt><trkpt lat="45.9701067" lon="8.799355"><ele>929.1666666666666</ele><time>2026-05-03T10:33:02.825Z</time></trkpt><trkpt lat="45.970175" lon="8.7991967"><ele>928.0</ele><time>2026-05-03T10:33:04.825Z</time></trkpt><trkpt lat="45.970215" lon="8.7991083"><ele>930.6666666666666</ele><time>2026-05-03T10:33:05.825Z</time></trkpt><trkpt lat="45.970255" lon="8.79902"><ele>933.3333333333333</ele><time>2026-05-03T10:33:06.825Z</time></trkpt><trkpt lat="45.9703117" lon="8.798945"><ele>936.0</ele><time>2026-05-03T10:33:07.825Z</time></trkpt><trkpt lat="45.9703567" lon="8.7988667"><ele>938.6666666666667</ele><time>2026-05-03T10:33:08.825Z</time></trkpt><trkpt lat="45.9704017" lon="8.798785"><ele>941.3333333333334</ele><time>2026-05-03T10:33:09.825Z</time></trkpt><trkpt lat="45.9704433" lon="8.79871"><ele>944.0</ele><time>2026-05-03T10:33:10.825Z</time></trkpt><trkpt lat="45.970525" lon="8.7985733"><ele>943.0000000000001</ele><time>2026-05-03T10:33:12.825Z</time></trkpt><trkpt lat="45.9705983" lon="8.7984633"><ele>942.0</ele><time>2026-05-03T10:33:14.825Z</time></trkpt><trkpt lat="45.970665" lon="8.7983883"><ele>941.0</ele><time>2026-05-03T10:33:16.824Z</time></trkpt><trkpt lat="45.970735" lon="8.79836"><ele>940.0</ele><time>2026-05-03T10:33:19.825Z</time></trkpt><trkpt lat="45.9707" lon="8.7982283"><ele>939.0000000000001</ele><time>2026-05-03T10:33:45.824Z</time></trkpt><trkpt lat="45.970635" lon="8.7982217"><ele>938.0</ele><time>2026-05-03T10:33:47.825Z</time></trkpt><trkpt lat="45.9705667" lon="8.79825"><ele>938.0</ele><time>2026-05-03T10:33:49.825Z</time></trkpt><trkpt lat="45.9704867" lon="8.798315"><ele>938.0</ele><time>2026-05-03T10:33:51.824Z</time></trkpt><trkpt lat="45.9704083" lon="8.798445"><ele>938.0</ele><time>2026-05-03T10:33:53.825Z</time></trkpt><trkpt lat="45.9703383" lon="8.798565"><ele>938.0</ele><time>2026-05-03T10:33:55.824Z</time></trkpt><trkpt lat="45.9702667" lon="8.7986817"><ele>938.0</ele><time>2026-05-03T10:33:57.825Z</time></trkpt><trkpt lat="45.9701833" lon="8.7988183"><ele>939.5</ele><time>2026-05-03T10:33:59.825Z</time></trkpt><trkpt lat="45.9701083" lon="8.79897"><ele>941.0</ele><time>2026-05-03T10:34:01.825Z</time></trkpt><trkpt lat="45.9700417" lon="8.7991017"><ele>942.5</ele><time>2026-05-03T10:34:03.825Z</time></trkpt><trkpt lat="45.969985" lon="8.7992183"><ele>944.0</ele><time>2026-05-03T10:34:05.825Z</time></trkpt><trkpt lat="45.9699217" lon="8.799375"><ele>941.3333333333334</ele><time>2026-05-03T10:34:07.825Z</time></trkpt><trkpt lat="45.969885" lon="8.799475"><ele>938.6666666666667</ele><time>2026-05-03T10:34:08.824Z</time></trkpt><trkpt lat="45.96985" lon="8.7995733"><ele>936.0</ele><time>2026-05-03T10:34:09.825Z</time></trkpt><trkpt lat="45.9698133" lon="8.799685"><ele>933.3333333333333</ele><time>2026-05-03T10:34:10.824Z</time></trkpt><trkpt lat="45.9697783" lon="8.7997883"><ele>930.6666666666666</ele><time>2026-05-03T10:34:11.825Z</time></trkpt><trkpt lat="45.96975" lon="8.7998867"><ele>928.0</ele><time>2026-05-03T10:34:12.825Z</time></trkpt><trkpt lat="45.96971" lon="8.8000433"><ele>927.9999999999999</ele><time>2026-05-03T10:34:14.825Z</time></trkpt><trkpt lat="45.9696767" lon="8.8001533"><ele>928.0</ele><time>2026-05-03T10:34:16.824Z</time></trkpt><trkpt lat="45.9696767" lon="8.8002483"><ele>928.0</ele><time>2026-05-03T10:34:20.825Z</time></trkpt><trkpt lat="45.9697267" lon="8.8003383"><ele>928.0</ele><time>2026-05-03T10:34:26.825Z</time></trkpt><trkpt lat="45.969785" lon="8.8003767"><ele>927.9999999999999</ele><time>2026-05-03T10:34:28.824Z</time></trkpt><trkpt lat="45.9698667" lon="8.8004067"><ele>928.0</ele><time>2026-05-03T10:34:30.825Z</time></trkpt><trkpt lat="45.9699583" lon="8.800385"><ele>932.8</ele><time>2026-05-03T10:34:32.825Z</time></trkpt><trkpt lat="45.9700633" lon="8.800335"><ele>937.5999999999999</ele><time>2026-05-03T10:34:34.824Z</time></trkpt><trkpt lat="45.970165" lon="8.8002917"><ele>942.4000000000001</ele><time>2026-05-03T10:34:36.824Z</time></trkpt><trkpt lat="45.9702767" lon="8.8002717"><ele>947.2</ele><time>2026-05-03T10:34:38.825Z</time></trkpt><trkpt lat="45.9703883" lon="8.8003217"><ele>952.0</ele><time>2026-05-03T10:34:40.825Z</time></trkpt><trkpt lat="45.9704417" lon="8.800465"><ele>952.0</ele><time>2026-05-03T10:34:42.825Z</time></trkpt><trkpt lat="45.9704533" lon="8.800565"><ele>952.0</ele><time>2026-05-03T10:34:43.824Z</time></trkpt><trkpt lat="45.9704633" lon="8.8006617"><ele>952.0</ele><time>2026-05-03T10:34:44.825Z</time></trkpt><trkpt lat="45.9704667" lon="8.800755"><ele>952.0</ele><time>2026-05-03T10:34:45.825Z</time></trkpt><trkpt lat="45.97049" lon="8.8008617"><ele>952.0</ele><time>2026-05-03T10:34:47.825Z</time></trkpt><trkpt lat="45.97057" lon="8.80084"><ele>952.0</ele><time>2026-05-03T10:34:50.823Z</time></trkpt><trkpt lat="45.970625" lon="8.8007483"><ele>952.0</ele><time>2026-05-03T10:34:52.824Z</time></trkpt><trkpt lat="45.970715" lon="8.8006417"><ele>951.9999999999999</ele><time>2026-05-03T10:34:54.824Z</time></trkpt><trkpt lat="45.97079" lon="8.8005717"><ele>952.0</ele><time>2026-05-03T10:34:56.824Z</time></trkpt><trkpt lat="45.9708233" lon="8.8006983"><ele>952.0</ele><time>2026-05-03T10:35:01.823Z</time></trkpt><trkpt lat="45.9708267" lon="8.8008167"><ele>952.0</ele><time>2026-05-03T10:35:03.824Z</time></trkpt><trkpt lat="45.9708617" lon="8.8009583"><ele>951.9999999999999</ele><time>2026-05-03T10:35:05.824Z</time></trkpt><trkpt lat="45.970875" lon="8.80105"><ele>952.0</ele><time>2026-05-03T10:35:06.824Z</time></trkpt><trkpt lat="45.9708817" lon="8.8012133"><ele>953.6666666666666</ele><time>2026-05-03T10:35:08.824Z</time></trkpt><trkpt lat="45.97091" lon="8.8013383"><ele>955.3333333333333</ele><time>2026-05-03T10:35:10.824Z</time></trkpt><trkpt lat="45.9709717" lon="8.8014533"><ele>957.0</ele><time>2026-05-03T10:35:12.824Z</time></trkpt><trkpt lat="45.9710367" lon="8.8015333"><ele>958.6666666666667</ele><time>2026-05-03T10:35:14.823Z</time></trkpt><trkpt lat="45.9710817" lon="8.8016267"><ele>960.3333333333334</ele><time>2026-05-03T10:35:17.824Z</time></trkpt><trkpt lat="45.9711683" lon="8.8016483"><ele>962.0</ele><time>2026-05-03T10:35:20.823Z</time></trkpt><trkpt lat="45.9712533" lon="8.801625"><ele>962.0</ele><time>2026-05-03T10:35:22.824Z</time></trkpt><trkpt lat="45.9713333" lon="8.80157"><ele>962.0</ele><time>2026-05-03T10:35:24.824Z</time></trkpt><trkpt lat="45.9714167" lon="8.801525"><ele>962.0</ele><time>2026-05-03T10:35:26.824Z</time></trkpt><trkpt lat="45.9715117" lon="8.801495"><ele>962.0</ele><time>2026-05-03T10:35:28.824Z</time></trkpt><trkpt lat="45.9716167" lon="8.80146"><ele>962.0</ele><time>2026-05-03T10:35:30.823Z</time></trkpt><trkpt lat="45.9716933" lon="8.80144"><ele>958.5000000000001</ele><time>2026-05-03T10:35:32.824Z</time></trkpt><trkpt lat="45.9717833" lon="8.8014133"><ele>955.0</ele><time>2026-05-03T10:35:35.824Z</time></trkpt><trkpt lat="45.9718383" lon="8.8013433"><ele>951.5</ele><time>2026-05-03T10:35:38.824Z</time></trkpt><trkpt lat="45.9719033" lon="8.8013833"><ele>948.0</ele><time>2026-05-03T10:35:46.824Z</time></trkpt><trkpt lat="45.971885" lon="8.8012767"><ele>944.5000000000001</ele><time>2026-05-03T10:36:02.824Z</time></trkpt><trkpt lat="45.9719233" lon="8.80117"><ele>941.0</ele><time>2026-05-03T10:36:04.823Z</time></trkpt><trkpt lat="45.9719667" lon="8.8011"><ele>941.0000000000001</ele><time>2026-05-03T10:36:05.824Z</time></trkpt><trkpt lat="45.972015" lon="8.8010383"><ele>941.0</ele><time>2026-05-03T10:36:06.824Z</time></trkpt><trkpt lat="45.97206" lon="8.8009733"><ele>941.0</ele><time>2026-05-03T10:36:07.824Z</time></trkpt><trkpt lat="45.9721333" lon="8.8008467"><ele>941.0</ele><time>2026-05-03T10:36:09.824Z</time></trkpt><trkpt lat="45.9721883" lon="8.8007217"><ele>941.0000000000001</ele><time>2026-05-03T10:36:11.823Z</time></trkpt><trkpt lat="45.9722033" lon="8.8006183"><ele>941.0</ele><time>2026-05-03T10:36:13.824Z</time></trkpt><trkpt lat="45.97217" lon="8.8004917"><ele>944.0</ele><time>2026-05-03T10:36:15.824Z</time></trkpt><trkpt lat="45.9721517" lon="8.8003317"><ele>946.9999999999999</ele><time>2026-05-03T10:36:17.823Z</time></trkpt><trkpt lat="45.97216" lon="8.8001483"><ele>949.9999999999999</ele><time>2026-05-03T10:36:19.823Z</time></trkpt><trkpt lat="45.9721917" lon="8.8000667"><ele>953.0</ele><time>2026-05-03T10:36:20.824Z</time></trkpt><trkpt lat="45.97226" lon="8.79992"><ele>956.0</ele><time>2026-05-03T10:36:22.824Z</time></trkpt><trkpt lat="45.9723" lon="8.79979"><ele>957.0000000000001</ele><time>2026-05-03T10:36:24.823Z</time></trkpt><trkpt lat="45.9723183" lon="8.7996467"><ele>958.0</ele><time>2026-05-03T10:36:26.823Z</time></trkpt><trkpt lat="45.97234" lon="8.79955"><ele>959.0</ele><time>2026-05-03T10:36:28.824Z</time></trkpt><trkpt lat="45.9723867" lon="8.7994417"><ele>960.0</ele><time>2026-05-03T10:36:31.823Z</time></trkpt><trkpt lat="45.972425" lon="8.7993217"><ele>961.0000000000001</ele><time>2026-05-03T10:36:34.824Z</time></trkpt><trkpt lat="45.9724433" lon="8.7992333"><ele>962.0</ele><time>2026-05-03T10:36:36.824Z</time></trkpt><trkpt lat="45.9724583" lon="8.799055"><ele>963.0000000000001</ele><time>2026-05-03T10:36:43.824Z</time></trkpt><trkpt lat="45.9725033" lon="8.79893"><ele>964.0</ele><time>2026-05-03T10:36:45.824Z</time></trkpt><trkpt lat="45.9725517" lon="8.7988367"><ele>965.0</ele><time>2026-05-03T10:36:46.824Z</time></trkpt><trkpt lat="45.972595" lon="8.7987467"><ele>966.0</ele><time>2026-05-03T10:36:47.824Z</time></trkpt><trkpt lat="45.9726433" lon="8.798665"><ele>967.0000000000001</ele><time>2026-05-03T10:36:48.824Z</time></trkpt><trkpt lat="45.97268" lon="8.79859"><ele>968.0</ele><time>2026-05-03T10:36:49.824Z</time></trkpt><trkpt lat="45.9727617" lon="8.798475"><ele>963.8</ele><time>2026-05-03T10:36:51.824Z</time></trkpt><trkpt lat="45.97283" lon="8.7983867"><ele>959.5999999999999</ele><time>2026-05-03T10:36:53.824Z</time></trkpt><trkpt lat="45.9728833" lon="8.7983183"><ele>955.4000000000001</ele><time>2026-05-03T10:36:55.824Z</time></trkpt><trkpt lat="45.972915" lon="8.7981833"><ele>951.2</ele><time>2026-05-03T10:36:58.824Z</time></trkpt><trkpt lat="45.972885" lon="8.7980367"><ele>947.0</ele><time>2026-05-03T10:37:00.823Z</time></trkpt><trkpt lat="45.9728867" lon="8.7978883"><ele>947.0</ele><time>2026-05-03T10:37:02.824Z</time></trkpt><trkpt lat="45.9729183" lon="8.7977383"><ele>947.0</ele><time>2026-05-03T10:37:04.823Z</time></trkpt><trkpt lat="45.9729633" lon="8.7975783"><ele>947.0</ele><time>2026-05-03T10:37:06.824Z</time></trkpt><trkpt lat="45.9730283" lon="8.79744"><ele>947.0</ele><time>2026-05-03T10:37:08.823Z</time></trkpt><trkpt lat="45.9730917" lon="8.79734"><ele>947.0</ele><time>2026-05-03T10:37:10.824Z</time></trkpt><trkpt lat="45.9731383" lon="8.7972633"><ele>947.5000000000001</ele><time>2026-05-03T10:37:12.824Z</time></trkpt><trkpt lat="45.9731617" lon="8.797165"><ele>948.0</ele><time>2026-05-03T10:37:14.824Z</time></trkpt><trkpt lat="45.9731817" lon="8.7970433"><ele>948.5</ele><time>2026-05-03T10:37:16.824Z</time></trkpt><trkpt lat="45.97321" lon="8.7969117"><ele>949.0</ele><time>2026-05-03T10:37:18.824Z</time></trkpt><trkpt lat="45.9732383" lon="8.796785"><ele>949.5000000000001</ele><time>2026-05-03T10:37:20.824Z</time></trkpt><trkpt lat="45.9732467" lon="8.7966767"><ele>950.0</ele><time>2026-05-03T10:37:22.824Z</time></trkpt><trkpt lat="45.973225" lon="8.7965617"><ele>950.0</ele><time>2026-05-03T10:37:24.824Z</time></trkpt><trkpt lat="45.9732" lon="8.796395"><ele>950.0</ele><time>2026-05-03T10:37:26.824Z</time></trkpt><trkpt lat="45.9731733" lon="8.7962817"><ele>950.0</ele><time>2026-05-03T10:37:27.824Z</time></trkpt><trkpt lat="45.9731467" lon="8.7961617"><ele>950.0</ele><time>2026-05-03T10:37:28.823Z</time></trkpt><trkpt lat="45.9731217" lon="8.7960483"><ele>950.0</ele><time>2026-05-03T10:37:29.824Z</time></trkpt><trkpt lat="45.973075" lon="8.7959283"><ele>949.7142857142858</ele><time>2026-05-03T10:37:30.823Z</time></trkpt><trkpt lat="45.9730567" lon="8.7958317"><ele>949.4285714285716</ele><time>2026-05-03T10:37:31.824Z</time></trkpt><trkpt lat="45.9730533" lon="8.79573"><ele>949.1428571428571</ele><time>2026-05-03T10:37:32.824Z</time></trkpt><trkpt lat="45.9730433" lon="8.7956317"><ele>948.8571428571429</ele><time>2026-05-03T10:37:33.824Z</time></trkpt><trkpt lat="45.9730317" lon="8.7955233"><ele>948.5714285714286</ele><time>2026-05-03T10:37:34.823Z</time></trkpt><trkpt lat="45.973025" lon="8.7954233"><ele>948.2857142857142</ele><time>2026-05-03T10:37:35.824Z</time></trkpt><trkpt lat="45.9730217" lon="8.79533"><ele>947.9999999999999</ele><time>2026-05-03T10:37:36.824Z</time></trkpt><trkpt lat="45.97302" lon="8.795225"><ele>948.0</ele><time>2026-05-03T10:37:37.824Z</time></trkpt><trkpt lat="45.9730217" lon="8.7951167"><ele>948.0</ele><time>2026-05-03T10:37:38.824Z</time></trkpt><trkpt lat="45.973025" lon="8.79502"><ele>948.0</ele><time>2026-05-03T10:37:39.823Z</time></trkpt><trkpt lat="45.9730283" lon="8.794915"><ele>948.0</ele><time>2026-05-03T10:37:40.824Z</time></trkpt><trkpt lat="45.9730233" lon="8.7948133"><ele>948.0</ele><time>2026-05-03T10:37:41.823Z</time></trkpt><trkpt lat="45.9730133" lon="8.794655"><ele>948.0</ele><time>2026-05-03T10:37:43.823Z</time></trkpt><trkpt lat="45.97299" lon="8.794555"><ele>948.0</ele><time>2026-05-03T10:37:46.824Z</time></trkpt><trkpt lat="45.9729633" lon="8.7944033"><ele>948.0</ele><time>2026-05-03T10:38:04.824Z</time></trkpt><trkpt lat="45.9730033" lon="8.7943183"><ele>948.0</ele><time>2026-05-03T10:38:06.824Z</time></trkpt><trkpt lat="45.973045" lon="8.7942133"><ele>948.0</ele><time>2026-05-03T10:38:08.823Z</time></trkpt><trkpt lat="45.9730817" lon="8.7940467"><ele>948.0</ele><time>2026-05-03T10:38:10.823Z</time></trkpt><trkpt lat="45.9730933" lon="8.79393"><ele>947.6666666666666</ele><time>2026-05-03T10:38:11.823Z</time></trkpt><trkpt lat="45.9730983" lon="8.793805"><ele>947.3333333333333</ele><time>2026-05-03T10:38:12.823Z</time></trkpt><trkpt lat="45.9731067" lon="8.793685"><ele>947.0</ele><time>2026-05-03T10:38:13.824Z</time></trkpt><trkpt lat="45.973115" lon="8.793565"><ele>946.6666666666666</ele><time>2026-05-03T10:38:14.824Z</time></trkpt><trkpt lat="45.97312" lon="8.7934467"><ele>946.3333333333333</ele><time>2026-05-03T10:38:15.824Z</time></trkpt><trkpt lat="45.9731267" lon="8.79334"><ele>946.0</ele><time>2026-05-03T10:38:16.823Z</time></trkpt><trkpt lat="45.9731367" lon="8.7932417"><ele>945.1428571428571</ele><time>2026-05-03T10:38:17.824Z</time></trkpt><trkpt lat="45.9731433" lon="8.7931417"><ele>944.2857142857142</ele><time>2026-05-03T10:38:18.823Z</time></trkpt><trkpt lat="45.973145" lon="8.7930433"><ele>943.4285714285713</ele><time>2026-05-03T10:38:19.824Z</time></trkpt><trkpt lat="45.9731433" lon="8.7929433"><ele>942.5714285714286</ele><time>2026-05-03T10:38:20.824Z</time></trkpt><trkpt lat="45.9731467" lon="8.7928467"><ele>941.7142857142856</ele><time>2026-05-03T10:38:21.824Z</time></trkpt><trkpt lat="45.9731483" lon="8.7927517"><ele>940.8571428571428</ele><time>2026-05-03T10:38:22.824Z</time></trkpt><trkpt lat="45.97315" lon="8.792655"><ele>940.0</ele><time>2026-05-03T10:38:23.824Z</time></trkpt><trkpt lat="45.9731517" lon="8.7925533"><ele>938.1666666666666</ele><time>2026-05-03T10:38:24.824Z</time></trkpt><trkpt lat="45.97315" lon="8.79244"><ele>936.3333333333333</ele><time>2026-05-03T10:38:25.824Z</time></trkpt><trkpt lat="45.9731467" lon="8.7923133"><ele>934.5</ele><time>2026-05-03T10:38:26.824Z</time></trkpt><trkpt lat="45.9731417" lon="8.7921867"><ele>932.6666666666667</ele><time>2026-05-03T10:38:27.823Z</time></trkpt><trkpt lat="45.9731317" lon="8.79207"><ele>930.8333333333334</ele><time>2026-05-03T10:38:28.823Z</time></trkpt><trkpt lat="45.97312" lon="8.7919783"><ele>929.0</ele><time>2026-05-03T10:38:29.824Z</time></trkpt><trkpt lat="45.9731" lon="8.7918517"><ele>929.0</ele><time>2026-05-03T10:38:31.823Z</time></trkpt><trkpt lat="45.97311" lon="8.7917483"><ele>926.0</ele><time>2026-05-03T10:42:11.824Z</time></trkpt><trkpt lat="45.9730608" lon="8.7918072"><ele>926.0</ele><time>2026-05-03T10:43:04.882Z</time></trkpt><trkpt lat="45.9730722" lon="8.7917044"><ele>926.0</ele><time>2026-05-03T10:45:14.841Z</time></trkpt></trkseg></trk></gpx>